ICE1A BIKF-KIAD
Flight info
| Callsign | ICE1A |
|---|---|
| Flight time | 6h 9m |
| Altitude | 36000 |
| Route | RALOV3A RALOV DCT RAKIS DCT 6330N DCT 6140N DCT 5850N DCT HOIST/N0461F360 DCT QUBIS/N0444F380 DCT ALB DCT DNY DCT LVZ SEG6 |
| Aircraft | B38M/M-SDE1FGHILORVWXY/HB1 |
Departure
| Time | 2026-05-05 07:48 |
|---|---|
| Airport | Keflavik International Airport (BIKF) |
Arrival
| Time | 2026-05-05 13:57 |
|---|---|
| Airport | Washington Dulles International Airport (KIAD) |
| Time | Latitude | Longitude | Altitude | Speed | Heading |
|---|---|---|---|---|---|
| 2026-05-05 06:52 | 63.99272 | -22.62572 | 140 ft | 0 kts | 51° |
| 2026-05-05 07:30 | 63.99267 | -22.62587 | 143 ft | 4 kts | 58° |
| 2026-05-05 07:30 | 63.99254 | -22.62626 | 146 ft | 4 kts | 52° |
| 2026-05-05 07:31 | 63.99242 | -22.62676 | 147 ft | 4 kts | 86° |
| 2026-05-05 07:31 | 63.99250 | -22.62723 | 145 ft | 4 kts | 134° |
| 2026-05-05 07:31 | 63.99272 | -22.62751 | 145 ft | 4 kts | 171° |
| 2026-05-05 07:31 | 63.99294 | -22.62755 | 145 ft | 0 kts | 179° |
| 2026-05-05 07:34 | 63.99287 | -22.62753 | 145 ft | 2 kts | 173° |
| 2026-05-05 07:34 | 63.99260 | -22.62723 | 145 ft | 6 kts | 142° |
| 2026-05-05 07:35 | 63.99219 | -22.62679 | 145 ft | 7 kts | 170° |
| 2026-05-05 07:35 | 63.99176 | -22.62628 | 145 ft | 8 kts | 110° |
| 2026-05-05 07:35 | 63.99174 | -22.62497 | 145 ft | 9 kts | 91° |
| 2026-05-05 07:35 | 63.99174 | -22.62345 | 145 ft | 10 kts | 90° |
| 2026-05-05 07:36 | 63.99173 | -22.62180 | 145 ft | 11 kts | 90° |
| 2026-05-05 07:36 | 63.99174 | -22.61990 | 145 ft | 12 kts | 90° |
| 2026-05-05 07:36 | 63.99174 | -22.61793 | 148 ft | 11 kts | 91° |
| 2026-05-05 07:36 | 63.99174 | -22.61633 | 152 ft | 9 kts | 90° |
| 2026-05-05 07:37 | 63.99174 | -22.61501 | 156 ft | 8 kts | 89° |
| 2026-05-05 07:37 | 63.99174 | -22.61328 | 159 ft | 14 kts | 90° |
| 2026-05-05 07:37 | 63.99141 | -22.61123 | 164 ft | 14 kts | 174° |
| 2026-05-05 07:37 | 63.99041 | -22.61121 | 167 ft | 14 kts | 180° |
| 2026-05-05 07:38 | 63.98939 | -22.61124 | 166 ft | 16 kts | 181° |
| 2026-05-05 07:38 | 63.98822 | -22.61126 | 166 ft | 18 kts | 179° |
| 2026-05-05 07:38 | 63.98691 | -22.61125 | 166 ft | 20 kts | 180° |
| 2026-05-05 07:38 | 63.98579 | -22.61125 | 167 ft | 13 kts | 180° |
| 2026-05-05 07:39 | 63.98487 | -22.61125 | 168 ft | 14 kts | 180° |
| 2026-05-05 07:39 | 63.98378 | -22.61126 | 161 ft | 15 kts | 180° |
| 2026-05-05 07:39 | 63.98301 | -22.61127 | 163 ft | 9 kts | 180° |
| 2026-05-05 07:39 | 63.98246 | -22.61127 | 164 ft | 7 kts | 180° |
| 2026-05-05 07:40 | 63.98233 | -22.61127 | 164 ft | 3 kts | 180° |
| 2026-05-05 07:40 | 63.98198 | -22.61126 | 162 ft | 8 kts | 178° |
| 2026-05-05 07:40 | 63.98145 | -22.61060 | 164 ft | 8 kts | 114° |
| 2026-05-05 07:40 | 63.98141 | -22.61006 | 167 ft | 0 kts | 102° |
| 2026-05-05 07:41 | 63.98134 | -22.60972 | 168 ft | 5 kts | 129° |
| 2026-05-05 07:41 | 63.98067 | -22.60940 | 170 ft | 15 kts | 181° |
| 2026-05-05 07:41 | 63.97944 | -22.60937 | 171 ft | 19 kts | 181° |
| 2026-05-05 07:41 | 63.97811 | -22.60940 | 172 ft | 20 kts | 179° |
| 2026-05-05 07:42 | 63.97670 | -22.60939 | 171 ft | 21 kts | 180° |
| 2026-05-05 07:42 | 63.97520 | -22.60941 | 168 ft | 21 kts | 180° |
| 2026-05-05 07:42 | 63.97371 | -22.60939 | 166 ft | 21 kts | 180° |
| 2026-05-05 07:42 | 63.97260 | -22.60941 | 162 ft | 14 kts | 180° |
| 2026-05-05 07:43 | 63.97149 | -22.60940 | 158 ft | 18 kts | 179° |
| 2026-05-05 07:43 | 63.97013 | -22.60940 | 153 ft | 19 kts | 180° |
| 2026-05-05 07:43 | 63.96889 | -22.60941 | 149 ft | 17 kts | 180° |
| 2026-05-05 07:43 | 63.96776 | -22.60941 | 144 ft | 17 kts | 180° |
| 2026-05-05 07:44 | 63.96680 | -22.60940 | 141 ft | 12 kts | 179° |
| 2026-05-05 07:44 | 63.96608 | -22.60940 | 138 ft | 8 kts | 180° |
| 2026-05-05 07:44 | 63.96562 | -22.60940 | 138 ft | 1 kts | 180° |
| 2026-05-05 07:44 | 63.96545 | -22.60941 | 137 ft | 4 kts | 180° |
| 2026-05-05 07:45 | 63.96513 | -22.60941 | 137 ft | 6 kts | 179° |
| 2026-05-05 07:45 | 63.96474 | -22.60915 | 138 ft | 5 kts | 138° |
| 2026-05-05 07:45 | 63.96472 | -22.60910 | 138 ft | 0 kts | 134° |
| 2026-05-05 07:45 | 63.96463 | -22.60867 | 139 ft | 7 kts | 104° |
| 2026-05-05 07:46 | 63.96461 | -22.60790 | 141 ft | 0 kts | 88° |
| 2026-05-05 07:46 | 63.96461 | -22.60789 | 141 ft | 0 kts | 88° |
| 2026-05-05 07:47 | 63.96462 | -22.60722 | 143 ft | 8 kts | 89° |
| 2026-05-05 07:47 | 63.96466 | -22.60572 | 146 ft | 8 kts | 64° |
| 2026-05-05 07:47 | 63.96496 | -22.60544 | 148 ft | 0 kts | 0° |
| 2026-05-05 07:47 | 63.96498 | -22.60544 | 148 ft | 2 kts | 0° |
| 2026-05-05 07:48 | 63.96710 | -22.60541 | 156 ft | 68 kts | 0° |
| 2026-05-05 07:48 | 63.97432 | -22.60541 | 175 ft | 137 kts | 0° |
| 2026-05-05 07:48 | 63.98532 | -22.60519 | 556 ft | 167 kts | 2° |
| 2026-05-05 07:48 | 63.99704 | -22.60569 | 1556 ft | 170 kts | 1° |
| 2026-05-05 07:49 | 64.00912 | -22.60616 | 2312 ft | 184 kts | 1° |
| 2026-05-05 07:49 | 64.02300 | -22.60618 | 2755 ft | 213 kts | 1° |
| 2026-05-05 07:49 | 64.03799 | -22.60599 | 3717 ft | 216 kts | 359° |
| 2026-05-05 07:49 | 64.05305 | -22.61362 | 4523 ft | 230 kts | 330° |
| 2026-05-05 07:50 | 64.06338 | -22.64164 | 5188 ft | 250 kts | 290° |
| 2026-05-05 07:50 | 64.06454 | -22.68145 | 6108 ft | 254 kts | 266° |
| 2026-05-05 07:50 | 64.06366 | -22.72186 | 7148 ft | 254 kts | 271° |
| 2026-05-05 07:50 | 64.06343 | -22.76219 | 8146 ft | 255 kts | 271° |
| 2026-05-05 07:51 | 64.06327 | -22.80290 | 9067 ft | 257 kts | 271° |
| 2026-05-05 07:51 | 64.06314 | -22.84386 | 10088 ft | 258 kts | 271° |
| 2026-05-05 07:51 | 64.06304 | -22.88503 | 10847 ft | 265 kts | 272° |
| 2026-05-05 07:51 | 64.06293 | -22.92863 | 11223 ft | 285 kts | 272° |
| 2026-05-05 07:52 | 64.06280 | -22.97523 | 11661 ft | 300 kts | 272° |
| 2026-05-05 07:52 | 64.06266 | -23.02327 | 12448 ft | 301 kts | 272° |
| 2026-05-05 07:52 | 64.06251 | -23.07105 | 13332 ft | 302 kts | 272° |
| 2026-05-05 07:52 | 64.06235 | -23.11905 | 14186 ft | 302 kts | 273° |
| 2026-05-05 07:53 | 64.06218 | -23.16704 | 14928 ft | 302 kts | 273° |
| 2026-05-05 07:53 | 64.06200 | -23.21471 | 15609 ft | 304 kts | 273° |
| 2026-05-05 07:53 | 64.06180 | -23.26335 | 16277 ft | 306 kts | 273° |
| 2026-05-05 07:53 | 64.06158 | -23.31200 | 16938 ft | 308 kts | 274° |
| 2026-05-05 07:54 | 64.06134 | -23.36104 | 17645 ft | 309 kts | 273° |
| 2026-05-05 07:54 | 64.06109 | -23.41028 | 18369 ft | 310 kts | 273° |
| 2026-05-05 07:54 | 64.06083 | -23.45958 | 18858 ft | 313 kts | 273° |
| 2026-05-05 07:54 | 64.06054 | -23.50976 | 19335 ft | 316 kts | 273° |
| 2026-05-05 07:55 | 64.06023 | -23.56000 | 19864 ft | 318 kts | 273° |
| 2026-05-05 07:55 | 64.05990 | -23.61069 | 20379 ft | 320 kts | 273° |
| 2026-05-05 07:55 | 64.05956 | -23.66173 | 20890 ft | 322 kts | 273° |
| 2026-05-05 07:55 | 64.05919 | -23.71322 | 21405 ft | 324 kts | 273° |
| 2026-05-05 07:56 | 64.05880 | -23.76484 | 21906 ft | 327 kts | 273° |
| 2026-05-05 07:56 | 64.05839 | -23.81682 | 22400 ft | 329 kts | 274° |
| 2026-05-05 07:56 | 64.05797 | -23.86926 | 22887 ft | 331 kts | 273° |
| 2026-05-05 07:56 | 64.05414 | -23.92152 | 23404 ft | 342 kts | 257° |
| 2026-05-05 07:57 | 64.04545 | -23.97230 | 23936 ft | 344 kts | 257° |
| 2026-05-05 07:57 | 64.03672 | -24.02350 | 24280 ft | 348 kts | 257° |
| 2026-05-05 07:57 | 64.02776 | -24.07488 | 24653 ft | 350 kts | 256° |
| 2026-05-05 07:57 | 64.01860 | -24.12660 | 25001 ft | 353 kts | 256° |
| 2026-05-05 07:58 | 64.00927 | -24.17872 | 25354 ft | 355 kts | 256° |
| 2026-05-05 07:58 | 63.99986 | -24.23101 | 25660 ft | 358 kts | 256° |
| 2026-05-05 07:58 | 63.99047 | -24.28299 | 25929 ft | 362 kts | 256° |
| 2026-05-05 07:58 | 63.98070 | -24.33687 | 26260 ft | 364 kts | 256° |
| 2026-05-05 07:59 | 63.97097 | -24.39040 | 26601 ft | 367 kts | 256° |
| 2026-05-05 07:59 | 63.96130 | -24.44342 | 26930 ft | 369 kts | 256° |
| 2026-05-05 07:59 | 63.95139 | -24.49764 | 27246 ft | 372 kts | 256° |
| 2026-05-05 07:59 | 63.94142 | -24.55203 | 27559 ft | 374 kts | 256° |
| 2026-05-05 08:00 | 63.93133 | -24.60695 | 27876 ft | 376 kts | 256° |
| 2026-05-05 08:00 | 63.92119 | -24.66193 | 28190 ft | 379 kts | 256° |
| 2026-05-05 08:00 | 63.91098 | -24.71717 | 28498 ft | 381 kts | 256° |
| 2026-05-05 08:00 | 63.90066 | -24.77285 | 28792 ft | 383 kts | 257° |
| 2026-05-05 08:01 | 63.89030 | -24.82867 | 29081 ft | 385 kts | 257° |
| 2026-05-05 08:01 | 63.88110 | -24.88545 | 29331 ft | 379 kts | 264° |
| 2026-05-05 08:01 | 63.87431 | -24.94357 | 29547 ft | 384 kts | 263° |
| 2026-05-05 08:01 | 63.86702 | -25.00194 | 29850 ft | 385 kts | 263° |
| 2026-05-05 08:02 | 63.85954 | -25.06048 | 30118 ft | 388 kts | 263° |
| 2026-05-05 08:02 | 63.85192 | -25.11924 | 30386 ft | 390 kts | 262° |
| 2026-05-05 08:02 | 63.84418 | -25.17842 | 30614 ft | 392 kts | 262° |
| 2026-05-05 08:02 | 63.83637 | -25.23777 | 30836 ft | 394 kts | 262° |
| 2026-05-05 08:03 | 63.82850 | -25.29731 | 31058 ft | 396 kts | 262° |
| 2026-05-05 08:03 | 63.82056 | -25.35719 | 31324 ft | 397 kts | 262° |
| 2026-05-05 08:03 | 63.81260 | -25.41702 | 31585 ft | 397 kts | 261° |
| 2026-05-05 08:03 | 63.80459 | -25.47699 | 31841 ft | 398 kts | 261° |
| 2026-05-05 08:04 | 63.79655 | -25.53698 | 32098 ft | 398 kts | 261° |
| 2026-05-05 08:04 | 63.78848 | -25.59696 | 32351 ft | 399 kts | 261° |
| 2026-05-05 08:04 | 63.78039 | -25.65696 | 32592 ft | 400 kts | 261° |
| 2026-05-05 08:04 | 63.77224 | -25.71709 | 32761 ft | 401 kts | 261° |
| 2026-05-05 08:05 | 63.76402 | -25.77751 | 32944 ft | 402 kts | 261° |
| 2026-05-05 08:05 | 63.75579 | -25.83778 | 33212 ft | 402 kts | 260° |
| 2026-05-05 08:05 | 63.74752 | -25.89818 | 33457 ft | 402 kts | 260° |
| 2026-05-05 08:05 | 63.73921 | -25.95860 | 33700 ft | 403 kts | 260° |
| 2026-05-05 08:06 | 63.73089 | -26.01895 | 33939 ft | 403 kts | 260° |
| 2026-05-05 08:06 | 63.72253 | -26.07928 | 34195 ft | 403 kts | 259° |
| 2026-05-05 08:06 | 63.71414 | -26.13967 | 34414 ft | 403 kts | 259° |
| 2026-05-05 08:06 | 63.70574 | -26.19993 | 34596 ft | 404 kts | 259° |
| 2026-05-05 08:07 | 63.69727 | -26.26041 | 34745 ft | 405 kts | 259° |
| 2026-05-05 08:07 | 63.68876 | -26.32096 | 34916 ft | 405 kts | 259° |
| 2026-05-05 08:07 | 63.68021 | -26.38162 | 35074 ft | 406 kts | 259° |
| 2026-05-05 08:07 | 63.67165 | -26.44218 | 35192 ft | 407 kts | 259° |
| 2026-05-05 08:08 | 63.66299 | -26.50308 | 35337 ft | 408 kts | 259° |
| 2026-05-05 08:08 | 63.65433 | -26.56384 | 35491 ft | 408 kts | 259° |
| 2026-05-05 08:08 | 63.64562 | -26.62477 | 35653 ft | 409 kts | 259° |
| 2026-05-05 08:08 | 63.63686 | -26.68577 | 35808 ft | 410 kts | 258° |
| 2026-05-05 08:09 | 63.62808 | -26.74674 | 35971 ft | 411 kts | 258° |
| 2026-05-05 08:09 | 63.61923 | -26.80794 | 36126 ft | 411 kts | 258° |
| 2026-05-05 08:09 | 63.61038 | -26.86898 | 36261 ft | 412 kts | 258° |
| 2026-05-05 08:09 | 63.60148 | -26.93033 | 36308 ft | 413 kts | 258° |
| 2026-05-05 08:10 | 63.58300 | -27.05230 | 36300 ft | 415 kts | 253° |
| 2026-05-05 08:10 | 63.56043 | -27.17176 | 36262 ft | 416 kts | 254° |
| 2026-05-05 08:11 | 63.53816 | -27.29156 | 36303 ft | 417 kts | 254° |
| 2026-05-05 08:11 | 63.51582 | -27.41148 | 36293 ft | 417 kts | 254° |
| 2026-05-05 08:12 | 63.49341 | -27.53107 | 36291 ft | 417 kts | 254° |
| 2026-05-05 08:12 | 63.47104 | -27.64975 | 36293 ft | 417 kts | 254° |
| 2026-05-05 08:13 | 63.44841 | -27.76911 | 36290 ft | 417 kts | 254° |
| 2026-05-05 08:13 | 63.42554 | -27.88905 | 36260 ft | 418 kts | 254° |
| 2026-05-05 08:14 | 63.40276 | -28.00776 | 36289 ft | 420 kts | 254° |
| 2026-05-05 08:14 | 63.38079 | -28.12160 | 36285 ft | 420 kts | 253° |
| 2026-05-05 08:15 | 63.35763 | -28.24091 | 36287 ft | 420 kts | 253° |
| 2026-05-05 08:15 | 63.33434 | -28.36017 | 36289 ft | 420 kts | 253° |
| 2026-05-05 08:16 | 63.31095 | -28.47923 | 36279 ft | 420 kts | 253° |
| 2026-05-05 08:16 | 63.28741 | -28.59845 | 36282 ft | 423 kts | 254° |
| 2026-05-05 08:17 | 63.26346 | -28.71895 | 36286 ft | 429 kts | 253° |
| 2026-05-05 08:17 | 63.23924 | -28.84009 | 36281 ft | 430 kts | 253° |
| 2026-05-05 08:18 | 63.21488 | -28.96123 | 36282 ft | 430 kts | 253° |
| 2026-05-05 08:18 | 63.19044 | -29.08204 | 36279 ft | 430 kts | 253° |
| 2026-05-05 08:19 | 63.16591 | -29.20262 | 36233 ft | 430 kts | 253° |
| 2026-05-05 08:19 | 63.14123 | -29.32321 | 36277 ft | 431 kts | 254° |
| 2026-05-05 08:20 | 63.11641 | -29.44376 | 36276 ft | 430 kts | 253° |
| 2026-05-05 08:20 | 63.09151 | -29.56400 | 36276 ft | 431 kts | 253° |
| 2026-05-05 08:21 | 63.06652 | -29.68401 | 36276 ft | 431 kts | 253° |
| 2026-05-05 08:21 | 63.04140 | -29.80408 | 36276 ft | 431 kts | 253° |
| 2026-05-05 08:22 | 63.01749 | -29.91786 | 36248 ft | 431 kts | 254° |
| 2026-05-05 08:22 | 62.99501 | -30.03809 | 36278 ft | 421 kts | 261° |
| 2026-05-05 08:23 | 62.97679 | -30.16121 | 36268 ft | 424 kts | 260° |
| 2026-05-05 08:23 | 62.95787 | -30.28395 | 36271 ft | 424 kts | 259° |
| 2026-05-05 08:24 | 62.93872 | -30.40679 | 36272 ft | 425 kts | 259° |
| 2026-05-05 08:24 | 62.91949 | -30.52925 | 36270 ft | 425 kts | 259° |
| 2026-05-05 08:25 | 62.90017 | -30.65142 | 36271 ft | 424 kts | 259° |
| 2026-05-05 08:25 | 62.88073 | -30.77354 | 36265 ft | 424 kts | 259° |
| 2026-05-05 08:26 | 62.86121 | -30.89534 | 36269 ft | 423 kts | 259° |
| 2026-05-05 08:26 | 62.84165 | -31.01661 | 36271 ft | 423 kts | 259° |
| 2026-05-05 08:27 | 62.82195 | -31.13788 | 36265 ft | 423 kts | 258° |
| 2026-05-05 08:27 | 62.80219 | -31.25879 | 36265 ft | 423 kts | 258° |
| 2026-05-05 08:28 | 62.78231 | -31.37955 | 36259 ft | 422 kts | 258° |
| 2026-05-05 08:28 | 62.76241 | -31.49970 | 36265 ft | 421 kts | 258° |
| 2026-05-05 08:29 | 62.74243 | -31.61956 | 36268 ft | 422 kts | 258° |
| 2026-05-05 08:30 | 62.71214 | -31.79975 | 36268 ft | 422 kts | 258° |
| 2026-05-05 08:30 | 62.69186 | -31.91949 | 36267 ft | 422 kts | 258° |
| 2026-05-05 08:31 | 62.67146 | -32.03912 | 36270 ft | 422 kts | 257° |
| 2026-05-05 08:31 | 62.65440 | -32.13858 | 36262 ft | 422 kts | 257° |
| 2026-05-05 08:32 | 62.63043 | -32.27748 | 36261 ft | 422 kts | 257° |
| 2026-05-05 08:32 | 62.60970 | -32.39676 | 36263 ft | 422 kts | 257° |
| 2026-05-05 08:33 | 62.58887 | -32.51586 | 36268 ft | 422 kts | 257° |
| 2026-05-05 08:33 | 62.57132 | -32.61566 | 36269 ft | 422 kts | 257° |
| 2026-05-05 08:34 | 62.55053 | -32.73321 | 36266 ft | 423 kts | 256° |
| 2026-05-05 08:34 | 62.52933 | -32.85232 | 36259 ft | 424 kts | 256° |
| 2026-05-05 08:35 | 62.50805 | -32.97117 | 36269 ft | 424 kts | 256° |
| 2026-05-05 08:35 | 62.48666 | -33.08988 | 36265 ft | 423 kts | 256° |
| 2026-05-05 08:36 | 62.46515 | -33.20853 | 36265 ft | 424 kts | 256° |
| 2026-05-05 08:36 | 62.44353 | -33.32705 | 36221 ft | 424 kts | 256° |
| 2026-05-05 08:37 | 62.42179 | -33.44552 | 36269 ft | 426 kts | 256° |
| 2026-05-05 08:37 | 62.39989 | -33.56411 | 36257 ft | 425 kts | 255° |
| 2026-05-05 08:38 | 62.37791 | -33.68245 | 36260 ft | 426 kts | 255° |
| 2026-05-05 08:38 | 62.35578 | -33.80087 | 36261 ft | 426 kts | 255° |
| 2026-05-05 08:39 | 62.33372 | -33.91821 | 36265 ft | 426 kts | 255° |
| 2026-05-05 08:39 | 62.31139 | -34.03624 | 36217 ft | 426 kts | 255° |
| 2026-05-05 08:40 | 62.28889 | -34.15456 | 36275 ft | 429 kts | 255° |
| 2026-05-05 08:40 | 62.26623 | -34.27292 | 36275 ft | 428 kts | 254° |
| 2026-05-05 08:41 | 62.24349 | -34.39105 | 36266 ft | 428 kts | 254° |
| 2026-05-05 08:41 | 62.22063 | -34.50907 | 36269 ft | 429 kts | 254° |
| 2026-05-05 08:42 | 62.19768 | -34.62692 | 36275 ft | 429 kts | 254° |
| 2026-05-05 08:42 | 62.17461 | -34.74462 | 36259 ft | 430 kts | 253° |
| 2026-05-05 08:43 | 62.15131 | -34.86283 | 36271 ft | 431 kts | 253° |
| 2026-05-05 08:43 | 62.12795 | -34.98066 | 36281 ft | 431 kts | 253° |
| 2026-05-05 08:44 | 62.10446 | -35.09843 | 36274 ft | 430 kts | 253° |
| 2026-05-05 08:44 | 62.08093 | -35.21577 | 36276 ft | 430 kts | 253° |
| 2026-05-05 08:45 | 62.05742 | -35.33229 | 36234 ft | 430 kts | 253° |
| 2026-05-05 08:45 | 62.03346 | -35.45037 | 36281 ft | 433 kts | 252° |
| 2026-05-05 08:46 | 62.00964 | -35.56709 | 36269 ft | 432 kts | 252° |
| 2026-05-05 08:46 | 61.98562 | -35.68412 | 36275 ft | 433 kts | 252° |
| 2026-05-05 08:47 | 61.96142 | -35.80136 | 36290 ft | 433 kts | 252° |
| 2026-05-05 08:47 | 61.93712 | -35.91843 | 36290 ft | 433 kts | 252° |
| 2026-05-05 08:48 | 61.91274 | -36.03517 | 36255 ft | 434 kts | 252° |
| 2026-05-05 08:48 | 61.88808 | -36.15265 | 36288 ft | 436 kts | 251° |
| 2026-05-05 08:49 | 61.86334 | -36.26983 | 36290 ft | 436 kts | 251° |
| 2026-05-05 08:49 | 61.83851 | -36.38679 | 36290 ft | 436 kts | 251° |
| 2026-05-05 08:50 | 61.81352 | -36.50380 | 36289 ft | 436 kts | 251° |
| 2026-05-05 08:50 | 61.78849 | -36.62037 | 36270 ft | 436 kts | 251° |
| 2026-05-05 08:51 | 61.76321 | -36.73743 | 36300 ft | 439 kts | 251° |
| 2026-05-05 08:51 | 61.73778 | -36.85457 | 36288 ft | 439 kts | 251° |
| 2026-05-05 08:52 | 61.71221 | -36.97166 | 36297 ft | 439 kts | 250° |
| 2026-05-05 08:52 | 61.68654 | -37.08858 | 36297 ft | 440 kts | 250° |
| 2026-05-05 08:53 | 61.66078 | -37.20526 | 36292 ft | 440 kts | 250° |
| 2026-05-05 08:53 | 61.63503 | -37.32124 | 36284 ft | 440 kts | 250° |
| 2026-05-05 08:54 | 61.60891 | -37.43822 | 36303 ft | 442 kts | 250° |
| 2026-05-05 08:54 | 61.58279 | -37.55460 | 36303 ft | 442 kts | 250° |
| 2026-05-05 08:55 | 61.55647 | -37.67122 | 36306 ft | 442 kts | 250° |
| 2026-05-05 08:55 | 61.53009 | -37.78749 | 36306 ft | 442 kts | 249° |
| 2026-05-05 08:56 | 61.50376 | -37.90289 | 36286 ft | 442 kts | 249° |
| 2026-05-05 08:56 | 61.47765 | -38.01670 | 36311 ft | 445 kts | 249° |
| 2026-05-05 08:57 | 61.45106 | -38.13203 | 36306 ft | 445 kts | 249° |
| 2026-05-05 08:57 | 61.42571 | -38.24137 | 36309 ft | 445 kts | 249° |
| 2026-05-05 08:58 | 61.39916 | -38.35530 | 36309 ft | 445 kts | 248° |
| 2026-05-05 08:58 | 61.37326 | -38.46586 | 36314 ft | 445 kts | 248° |
| 2026-05-05 08:59 | 61.34757 | -38.57499 | 36314 ft | 445 kts | 248° |
| 2026-05-05 08:59 | 61.32388 | -38.67512 | 36314 ft | 445 kts | 248° |
| 2026-05-05 09:00 | 61.29848 | -38.78200 | 36314 ft | 445 kts | 248° |
| 2026-05-05 09:00 | 61.27329 | -38.88747 | 36327 ft | 445 kts | 248° |
| 2026-05-05 09:01 | 61.24968 | -38.98580 | 36322 ft | 445 kts | 248° |
| 2026-05-05 09:01 | 61.22517 | -39.08753 | 36320 ft | 445 kts | 248° |
| 2026-05-05 09:02 | 61.20749 | -39.16065 | 36293 ft | 446 kts | 248° |
| 2026-05-05 09:02 | 61.19153 | -39.22647 | 36319 ft | 447 kts | 247° |
| 2026-05-05 09:03 | 61.17632 | -39.28909 | 36319 ft | 447 kts | 247° |
| 2026-05-05 09:03 | 61.16099 | -39.35198 | 36315 ft | 447 kts | 247° |
| 2026-05-05 09:04 | 61.14568 | -39.41466 | 36317 ft | 447 kts | 247° |
| 2026-05-05 09:04 | 61.13037 | -39.47710 | 36319 ft | 447 kts | 247° |
| 2026-05-05 09:05 | 61.11510 | -39.53926 | 36320 ft | 447 kts | 247° |
| 2026-05-05 09:05 | 61.09936 | -39.60313 | 36320 ft | 447 kts | 247° |
| 2026-05-05 09:06 | 61.08402 | -39.66525 | 36320 ft | 447 kts | 247° |
| 2026-05-05 09:06 | 61.06836 | -39.72845 | 36319 ft | 447 kts | 247° |
| 2026-05-05 09:07 | 61.05305 | -39.79008 | 36307 ft | 448 kts | 246° |
| 2026-05-05 09:07 | 61.03742 | -39.85286 | 36327 ft | 450 kts | 246° |
| 2026-05-05 09:08 | 61.02204 | -39.91446 | 36322 ft | 450 kts | 246° |
| 2026-05-05 09:08 | 61.00681 | -39.97532 | 36320 ft | 450 kts | 246° |
| 2026-05-05 09:09 | 60.99163 | -40.03730 | 36321 ft | 449 kts | 247° |
| 2026-05-05 09:09 | 60.97679 | -40.09875 | 36320 ft | 449 kts | 247° |
| 2026-05-05 09:10 | 60.96224 | -40.15918 | 36319 ft | 449 kts | 247° |
| 2026-05-05 09:10 | 60.94761 | -40.21990 | 36321 ft | 449 kts | 247° |
| 2026-05-05 09:11 | 60.93289 | -40.28087 | 36324 ft | 450 kts | 247° |
| 2026-05-05 09:11 | 60.91806 | -40.34211 | 36314 ft | 449 kts | 247° |
| 2026-05-05 09:12 | 60.90328 | -40.40293 | 36319 ft | 450 kts | 246° |
| 2026-05-05 09:12 | 60.88813 | -40.46520 | 36332 ft | 452 kts | 246° |
| 2026-05-05 09:13 | 60.87194 | -40.53150 | 36329 ft | 452 kts | 246° |
| 2026-05-05 09:13 | 60.85712 | -40.59203 | 36332 ft | 451 kts | 246° |
| 2026-05-05 09:14 | 60.84111 | -40.65723 | 36328 ft | 452 kts | 246° |
| 2026-05-05 09:14 | 60.82601 | -40.71851 | 36328 ft | 452 kts | 246° |
| 2026-05-05 09:15 | 60.81095 | -40.77952 | 36329 ft | 452 kts | 246° |
| 2026-05-05 09:15 | 60.79576 | -40.84083 | 36329 ft | 452 kts | 246° |
| 2026-05-05 09:16 | 60.78017 | -40.90360 | 36335 ft | 452 kts | 246° |
| 2026-05-05 09:16 | 60.76444 | -40.96674 | 36321 ft | 452 kts | 246° |
| 2026-05-05 09:17 | 60.74887 | -41.02908 | 36330 ft | 453 kts | 246° |
| 2026-05-05 09:17 | 60.73332 | -41.09118 | 36338 ft | 454 kts | 245° |
| 2026-05-05 09:18 | 60.71762 | -41.15363 | 36331 ft | 454 kts | 246° |
| 2026-05-05 09:18 | 60.70458 | -41.20544 | 36335 ft | 454 kts | 246° |
| 2026-05-05 09:19 | 60.68921 | -41.26628 | 36330 ft | 454 kts | 245° |
| 2026-05-05 09:19 | 60.67346 | -41.32852 | 36339 ft | 454 kts | 246° |
| 2026-05-05 09:20 | 60.65778 | -41.39028 | 36340 ft | 454 kts | 245° |
| 2026-05-05 09:20 | 60.64222 | -41.45138 | 36334 ft | 454 kts | 246° |
| 2026-05-05 09:21 | 60.62635 | -41.51353 | 36344 ft | 454 kts | 245° |
| 2026-05-05 09:21 | 60.61066 | -41.57479 | 36329 ft | 455 kts | 245° |
| 2026-05-05 09:22 | 60.59493 | -41.63610 | 36367 ft | 457 kts | 244° |
| 2026-05-05 09:22 | 60.57911 | -41.69750 | 36350 ft | 458 kts | 245° |
| 2026-05-05 09:23 | 60.56323 | -41.75904 | 36345 ft | 457 kts | 245° |
| 2026-05-05 09:23 | 60.54716 | -41.82108 | 36366 ft | 457 kts | 245° |
| 2026-05-05 09:24 | 60.53100 | -41.88336 | 36351 ft | 457 kts | 244° |
| 2026-05-05 09:24 | 60.51193 | -41.95657 | 36367 ft | 458 kts | 245° |
| 2026-05-05 09:25 | 60.48207 | -42.07079 | 36367 ft | 458 kts | 244° |
| 2026-05-05 09:25 | 60.45212 | -42.18471 | 36357 ft | 459 kts | 243° |
| 2026-05-05 09:26 | 60.42195 | -42.29892 | 36359 ft | 460 kts | 243° |
| 2026-05-05 09:26 | 60.39168 | -42.41291 | 36362 ft | 461 kts | 243° |
| 2026-05-05 09:27 | 60.36129 | -42.52682 | 36356 ft | 461 kts | 243° |
| 2026-05-05 09:27 | 60.33078 | -42.64057 | 36359 ft | 461 kts | 243° |
| 2026-05-05 09:28 | 60.30018 | -42.75407 | 36338 ft | 461 kts | 242° |
| 2026-05-05 09:28 | 60.26932 | -42.86796 | 36355 ft | 464 kts | 242° |
| 2026-05-05 09:29 | 60.23850 | -42.98110 | 36343 ft | 463 kts | 241° |
| 2026-05-05 09:29 | 60.20726 | -43.09527 | 36337 ft | 463 kts | 241° |
| 2026-05-05 09:30 | 60.17627 | -43.20794 | 36316 ft | 463 kts | 241° |
| 2026-05-05 09:30 | 60.14479 | -43.32181 | 36330 ft | 464 kts | 240° |
| 2026-05-05 09:31 | 60.11329 | -43.43522 | 36302 ft | 466 kts | 240° |
| 2026-05-05 09:31 | 60.08159 | -43.54877 | 36295 ft | 466 kts | 240° |
| 2026-05-05 09:32 | 60.05001 | -43.66130 | 36251 ft | 466 kts | 239° |
| 2026-05-05 09:32 | 60.01818 | -43.77420 | 36250 ft | 466 kts | 239° |
| 2026-05-05 09:33 | 59.98601 | -43.88767 | 36224 ft | 467 kts | 239° |
| 2026-05-05 09:33 | 59.95388 | -44.00049 | 36214 ft | 468 kts | 238° |
| 2026-05-05 09:34 | 59.92182 | -44.11251 | 36200 ft | 468 kts | 238° |
| 2026-05-05 09:34 | 59.88929 | -44.22562 | 36194 ft | 468 kts | 238° |
| 2026-05-05 09:35 | 59.85704 | -44.33722 | 36153 ft | 468 kts | 238° |
| 2026-05-05 09:35 | 59.80814 | -44.50536 | 36159 ft | 468 kts | 238° |
| 2026-05-05 09:36 | 59.77561 | -44.61656 | 36122 ft | 468 kts | 237° |
| 2026-05-05 09:36 | 59.74927 | -44.70622 | 36123 ft | 468 kts | 237° |
| 2026-05-05 09:37 | 59.72285 | -44.79572 | 36093 ft | 468 kts | 237° |
| 2026-05-05 09:37 | 59.69323 | -44.89576 | 36092 ft | 468 kts | 237° |
| 2026-05-05 09:38 | 59.66019 | -45.00686 | 36087 ft | 469 kts | 236° |
| 2026-05-05 09:38 | 59.62691 | -45.11811 | 36082 ft | 471 kts | 236° |
| 2026-05-05 09:39 | 59.59351 | -45.22927 | 36066 ft | 471 kts | 236° |
| 2026-05-05 09:39 | 59.56010 | -45.33994 | 36060 ft | 469 kts | 235° |
| 2026-05-05 09:40 | 59.52664 | -45.45025 | 36054 ft | 469 kts | 235° |
| 2026-05-05 09:40 | 59.49300 | -45.56065 | 36050 ft | 471 kts | 234° |
| 2026-05-05 09:41 | 59.45932 | -45.67062 | 36045 ft | 475 kts | 233° |
| 2026-05-05 09:41 | 59.42516 | -45.78163 | 36051 ft | 475 kts | 233° |
| 2026-05-05 09:42 | 59.39083 | -45.89267 | 36035 ft | 475 kts | 234° |
| 2026-05-05 09:42 | 59.35645 | -46.00337 | 36036 ft | 474 kts | 233° |
| 2026-05-05 09:43 | 59.32195 | -46.11390 | 36022 ft | 476 kts | 232° |
| 2026-05-05 09:43 | 59.28728 | -46.22441 | 36022 ft | 476 kts | 233° |
| 2026-05-05 09:44 | 59.25264 | -46.33437 | 36005 ft | 476 kts | 232° |
| 2026-05-05 09:44 | 59.21774 | -46.44461 | 35998 ft | 476 kts | 232° |
| 2026-05-05 09:45 | 59.18283 | -46.55436 | 35978 ft | 476 kts | 232° |
| 2026-05-05 09:45 | 59.14774 | -46.66418 | 35985 ft | 476 kts | 231° |
| 2026-05-05 09:46 | 59.11263 | -46.77354 | 35965 ft | 477 kts | 231° |
| 2026-05-05 09:46 | 59.07786 | -46.88133 | 35964 ft | 476 kts | 231° |
| 2026-05-05 09:47 | 59.04285 | -46.98939 | 35954 ft | 476 kts | 231° |
| 2026-05-05 09:47 | 59.00736 | -47.09840 | 35971 ft | 476 kts | 231° |
| 2026-05-05 09:48 | 58.97194 | -47.20669 | 35943 ft | 478 kts | 231° |
| 2026-05-05 09:48 | 58.93708 | -47.31282 | 35919 ft | 478 kts | 231° |
| 2026-05-05 09:49 | 58.90227 | -47.41828 | 35922 ft | 478 kts | 230° |
| 2026-05-05 09:49 | 58.86704 | -47.52454 | 35897 ft | 478 kts | 231° |
| 2026-05-05 09:50 | 58.83264 | -47.62786 | 35943 ft | 477 kts | 231° |
| 2026-05-05 09:50 | 58.79742 | -47.73314 | 35883 ft | 479 kts | 231° |
| 2026-05-05 09:51 | 58.76243 | -47.83729 | 35888 ft | 479 kts | 231° |
| 2026-05-05 09:51 | 58.73184 | -47.92797 | 35861 ft | 479 kts | 231° |
| 2026-05-05 09:52 | 58.69719 | -48.03025 | 35869 ft | 479 kts | 231° |
| 2026-05-05 09:52 | 58.66249 | -48.13225 | 35899 ft | 479 kts | 230° |
| 2026-05-05 09:53 | 58.62925 | -48.22954 | 35844 ft | 481 kts | 230° |
| 2026-05-05 09:53 | 58.59563 | -48.32758 | 35837 ft | 481 kts | 230° |
| 2026-05-05 09:54 | 58.56400 | -48.41941 | 35834 ft | 481 kts | 230° |
| 2026-05-05 09:54 | 58.53101 | -48.51480 | 35835 ft | 481 kts | 230° |
| 2026-05-05 09:55 | 58.49957 | -48.60538 | 35821 ft | 481 kts | 230° |
| 2026-05-05 09:55 | 58.47070 | -48.68821 | 35837 ft | 482 kts | 229° |
| 2026-05-05 09:56 | 58.44099 | -48.77320 | 35807 ft | 481 kts | 229° |
| 2026-05-05 09:56 | 58.41099 | -48.85869 | 35809 ft | 481 kts | 229° |
| 2026-05-05 09:57 | 58.38004 | -48.94657 | 35795 ft | 481 kts | 229° |
| 2026-05-05 09:57 | 58.34959 | -49.03271 | 35796 ft | 481 kts | 229° |
| 2026-05-05 09:58 | 58.31908 | -49.11877 | 35797 ft | 481 kts | 229° |
| 2026-05-05 09:58 | 58.29162 | -49.19597 | 35809 ft | 479 kts | 228° |
| 2026-05-05 09:59 | 58.26440 | -49.27229 | 35785 ft | 476 kts | 227° |
| 2026-05-05 09:59 | 58.23919 | -49.34278 | 35788 ft | 477 kts | 227° |
| 2026-05-05 10:00 | 58.21392 | -49.41322 | 35787 ft | 477 kts | 227° |
| 2026-05-05 10:00 | 58.18810 | -49.48502 | 35789 ft | 476 kts | 227° |
| 2026-05-05 10:01 | 58.16494 | -49.54923 | 35773 ft | 476 kts | 227° |
| 2026-05-05 10:01 | 58.14197 | -49.61275 | 35772 ft | 476 kts | 227° |
| 2026-05-05 10:02 | 58.11612 | -49.68402 | 35774 ft | 476 kts | 227° |
| 2026-05-05 10:02 | 58.09354 | -49.74612 | 35757 ft | 476 kts | 227° |
| 2026-05-05 10:03 | 58.06943 | -49.81226 | 35757 ft | 476 kts | 227° |
| 2026-05-05 10:03 | 58.04670 | -49.87445 | 35757 ft | 476 kts | 227° |
| 2026-05-05 10:04 | 58.02344 | -49.93794 | 35742 ft | 476 kts | 227° |
| 2026-05-05 10:04 | 57.99951 | -50.00275 | 35742 ft | 475 kts | 227° |
| 2026-05-05 10:05 | 57.97119 | -50.07918 | 35744 ft | 476 kts | 227° |
| 2026-05-05 10:05 | 57.95015 | -50.13636 | 35772 ft | 476 kts | 227° |
| 2026-05-05 10:06 | 57.92931 | -50.19302 | 35726 ft | 473 kts | 226° |
| 2026-05-05 10:06 | 57.91087 | -50.24305 | 35726 ft | 472 kts | 226° |
| 2026-05-05 10:07 | 57.89094 | -50.29702 | 35717 ft | 473 kts | 226° |
| 2026-05-05 10:07 | 57.87066 | -50.35180 | 35714 ft | 473 kts | 226° |
| 2026-05-05 10:08 | 57.85069 | -50.40561 | 35713 ft | 473 kts | 226° |
| 2026-05-05 10:08 | 57.83027 | -50.46054 | 35714 ft | 473 kts | 226° |
| 2026-05-05 10:09 | 57.80996 | -50.51501 | 35703 ft | 473 kts | 226° |
| 2026-05-05 10:09 | 57.78939 | -50.57010 | 35707 ft | 473 kts | 226° |
| 2026-05-05 10:10 | 57.76898 | -50.62461 | 35721 ft | 474 kts | 226° |
| 2026-05-05 10:10 | 57.74891 | -50.67807 | 35674 ft | 474 kts | 226° |
| 2026-05-05 10:11 | 57.72851 | -50.73231 | 35684 ft | 474 kts | 226° |
| 2026-05-05 10:11 | 57.70840 | -50.78565 | 35681 ft | 474 kts | 226° |
| 2026-05-05 10:12 | 57.68810 | -50.83937 | 35679 ft | 474 kts | 226° |
| 2026-05-05 10:12 | 57.66778 | -50.89304 | 35673 ft | 474 kts | 226° |
| 2026-05-05 10:13 | 57.64744 | -50.94664 | 35672 ft | 474 kts | 226° |
| 2026-05-05 10:13 | 57.62737 | -50.99941 | 35673 ft | 474 kts | 226° |
| 2026-05-05 10:14 | 57.60726 | -51.05216 | 35711 ft | 474 kts | 226° |
| 2026-05-05 10:14 | 57.58648 | -51.10658 | 35678 ft | 476 kts | 226° |
| 2026-05-05 10:15 | 57.56603 | -51.15997 | 35650 ft | 476 kts | 226° |
| 2026-05-05 10:15 | 57.54415 | -51.21696 | 35659 ft | 477 kts | 226° |
| 2026-05-05 10:16 | 57.52376 | -51.26997 | 35643 ft | 477 kts | 226° |
| 2026-05-05 10:16 | 57.50314 | -51.32346 | 35640 ft | 477 kts | 226° |
| 2026-05-05 10:17 | 57.48263 | -51.37653 | 35643 ft | 477 kts | 226° |
| 2026-05-05 10:17 | 57.46207 | -51.42963 | 35624 ft | 476 kts | 226° |
| 2026-05-05 10:18 | 57.44163 | -51.48231 | 35628 ft | 476 kts | 226° |
| 2026-05-05 10:18 | 57.42090 | -51.53559 | 35679 ft | 477 kts | 227° |
| 2026-05-05 10:19 | 57.40028 | -51.58852 | 35633 ft | 478 kts | 227° |
| 2026-05-05 10:19 | 57.37970 | -51.64117 | 35602 ft | 478 kts | 227° |
| 2026-05-05 10:20 | 57.35919 | -51.69356 | 35609 ft | 478 kts | 227° |
| 2026-05-05 10:20 | 57.33842 | -51.74650 | 35606 ft | 478 kts | 227° |
| 2026-05-05 10:21 | 57.31813 | -51.79809 | 35592 ft | 478 kts | 227° |
| 2026-05-05 10:21 | 57.29772 | -51.84989 | 35593 ft | 478 kts | 227° |
| 2026-05-05 10:22 | 57.27698 | -51.90241 | 35592 ft | 478 kts | 227° |
| 2026-05-05 10:22 | 57.25617 | -51.95500 | 35592 ft | 478 kts | 227° |
| 2026-05-05 10:23 | 57.23568 | -52.00665 | 35614 ft | 478 kts | 227° |
| 2026-05-05 10:23 | 57.21488 | -52.05898 | 35576 ft | 477 kts | 227° |
| 2026-05-05 10:24 | 57.19469 | -52.10966 | 35579 ft | 477 kts | 227° |
| 2026-05-05 10:24 | 57.17043 | -52.17041 | 35565 ft | 477 kts | 227° |
| 2026-05-05 10:25 | 57.13098 | -52.26889 | 35555 ft | 477 kts | 227° |
| 2026-05-05 10:25 | 57.09160 | -52.36679 | 35541 ft | 477 kts | 227° |
| 2026-05-05 10:26 | 57.05209 | -52.46464 | 35570 ft | 477 kts | 227° |
| 2026-05-05 10:26 | 57.01251 | -52.56222 | 35532 ft | 476 kts | 227° |
| 2026-05-05 10:27 | 56.97281 | -52.65972 | 35529 ft | 477 kts | 227° |
| 2026-05-05 10:27 | 56.93309 | -52.75688 | 35516 ft | 476 kts | 227° |
| 2026-05-05 10:28 | 56.89328 | -52.85387 | 35515 ft | 476 kts | 227° |
| 2026-05-05 10:28 | 56.85345 | -52.95054 | 35505 ft | 475 kts | 227° |
| 2026-05-05 10:29 | 56.81366 | -53.04669 | 35496 ft | 476 kts | 227° |
| 2026-05-05 10:29 | 56.77357 | -53.14320 | 35486 ft | 478 kts | 227° |
| 2026-05-05 10:30 | 56.73336 | -53.23961 | 35481 ft | 477 kts | 227° |
| 2026-05-05 10:30 | 56.69313 | -53.33570 | 35504 ft | 477 kts | 228° |
| 2026-05-05 10:31 | 56.65283 | -53.43156 | 35468 ft | 476 kts | 227° |
| 2026-05-05 10:31 | 56.61252 | -53.52705 | 35457 ft | 476 kts | 227° |
| 2026-05-05 10:32 | 56.57213 | -53.62238 | 35447 ft | 476 kts | 227° |
| 2026-05-05 10:32 | 56.53166 | -53.71752 | 35445 ft | 476 kts | 227° |
| 2026-05-05 10:33 | 56.49114 | -53.81240 | 35443 ft | 476 kts | 227° |
| 2026-05-05 10:33 | 56.45061 | -53.90692 | 35434 ft | 476 kts | 227° |
| 2026-05-05 10:34 | 56.40993 | -54.00142 | 35435 ft | 476 kts | 227° |
| 2026-05-05 10:34 | 56.36926 | -54.09553 | 35422 ft | 476 kts | 227° |
| 2026-05-05 10:35 | 56.32847 | -54.18956 | 35419 ft | 476 kts | 227° |
| 2026-05-05 10:35 | 56.28765 | -54.28331 | 35412 ft | 476 kts | 227° |
| 2026-05-05 10:36 | 56.24674 | -54.37688 | 35406 ft | 476 kts | 227° |
| 2026-05-05 10:36 | 56.20578 | -54.47022 | 35395 ft | 475 kts | 227° |
| 2026-05-05 10:37 | 56.16476 | -54.56332 | 35395 ft | 475 kts | 227° |
| 2026-05-05 10:37 | 56.12367 | -54.65626 | 35398 ft | 475 kts | 227° |
| 2026-05-05 10:38 | 56.08260 | -54.74874 | 35388 ft | 475 kts | 227° |
| 2026-05-05 10:38 | 56.04141 | -54.84117 | 35376 ft | 475 kts | 227° |
| 2026-05-05 10:39 | 56.00017 | -54.93337 | 35370 ft | 475 kts | 227° |
| 2026-05-05 10:39 | 55.95914 | -55.02474 | 35401 ft | 475 kts | 227° |
| 2026-05-05 10:40 | 55.91778 | -55.11651 | 35360 ft | 474 kts | 227° |
| 2026-05-05 10:40 | 55.87643 | -55.20790 | 35371 ft | 474 kts | 227° |
| 2026-05-05 10:41 | 55.83488 | -55.29938 | 35356 ft | 476 kts | 227° |
| 2026-05-05 10:41 | 55.79317 | -55.39088 | 35350 ft | 476 kts | 227° |
| 2026-05-05 10:42 | 55.73054 | -55.52763 | 35337 ft | 475 kts | 227° |
| 2026-05-05 10:43 | 55.68875 | -55.61844 | 35332 ft | 475 kts | 227° |
| 2026-05-05 10:43 | 55.64687 | -55.70911 | 35334 ft | 475 kts | 227° |
| 2026-05-05 10:44 | 55.60497 | -55.79948 | 35319 ft | 475 kts | 227° |
| 2026-05-05 10:44 | 55.56298 | -55.88972 | 35321 ft | 475 kts | 227° |
| 2026-05-05 10:45 | 55.52102 | -55.97956 | 35320 ft | 474 kts | 227° |
| 2026-05-05 10:45 | 55.47893 | -56.06933 | 35312 ft | 474 kts | 227° |
| 2026-05-05 10:46 | 55.43684 | -56.15878 | 35311 ft | 474 kts | 227° |
| 2026-05-05 10:46 | 55.39469 | -56.24805 | 35316 ft | 474 kts | 227° |
| 2026-05-05 10:47 | 55.35248 | -56.33709 | 35309 ft | 473 kts | 227° |
| 2026-05-05 10:47 | 55.31027 | -56.42586 | 35304 ft | 474 kts | 227° |
| 2026-05-05 10:48 | 55.26800 | -56.51448 | 35302 ft | 473 kts | 227° |
| 2026-05-05 10:48 | 55.22566 | -56.60293 | 35303 ft | 474 kts | 227° |
| 2026-05-05 10:49 | 55.18356 | -56.69057 | 35301 ft | 472 kts | 227° |
| 2026-05-05 10:49 | 55.14124 | -56.77837 | 35298 ft | 472 kts | 227° |
| 2026-05-05 10:50 | 55.09884 | -56.86603 | 35299 ft | 472 kts | 227° |
| 2026-05-05 10:50 | 55.05643 | -56.95340 | 35297 ft | 472 kts | 227° |
| 2026-05-05 10:51 | 55.01209 | -57.03745 | 35320 ft | 470 kts | 223° |
| 2026-05-05 10:51 | 54.96656 | -57.11927 | 35299 ft | 470 kts | 224° |
| 2026-05-05 10:52 | 54.92123 | -57.20123 | 35298 ft | 470 kts | 224° |
| 2026-05-05 10:52 | 54.87587 | -57.28304 | 35298 ft | 470 kts | 224° |
| 2026-05-05 10:53 | 54.83042 | -57.36473 | 35314 ft | 470 kts | 224° |
| 2026-05-05 10:53 | 54.78494 | -57.44619 | 35302 ft | 471 kts | 224° |
| 2026-05-05 10:54 | 54.73929 | -57.52768 | 35300 ft | 471 kts | 224° |
| 2026-05-05 10:54 | 54.70125 | -57.59537 | 35301 ft | 471 kts | 224° |
| 2026-05-05 10:55 | 54.65550 | -57.67653 | 35297 ft | 471 kts | 224° |
| 2026-05-05 10:55 | 54.60971 | -57.75748 | 35286 ft | 471 kts | 224° |
| 2026-05-05 10:56 | 54.56396 | -57.83806 | 35285 ft | 470 kts | 224° |
| 2026-05-05 10:56 | 54.51819 | -57.91843 | 35280 ft | 470 kts | 224° |
| 2026-05-05 10:57 | 54.47233 | -57.99867 | 35282 ft | 470 kts | 224° |
| 2026-05-05 10:57 | 54.42645 | -58.07866 | 35278 ft | 470 kts | 224° |
| 2026-05-05 10:58 | 54.38055 | -58.15844 | 35270 ft | 470 kts | 224° |
| 2026-05-05 10:58 | 54.33482 | -58.23765 | 35273 ft | 470 kts | 224° |
| 2026-05-05 10:59 | 54.28877 | -58.31714 | 35281 ft | 470 kts | 224° |
| 2026-05-05 10:59 | 54.24268 | -58.39641 | 35276 ft | 470 kts | 224° |
| 2026-05-05 11:00 | 54.19659 | -58.47546 | 35275 ft | 468 kts | 224° |
| 2026-05-05 11:00 | 54.15054 | -58.55413 | 35286 ft | 468 kts | 224° |
| 2026-05-05 11:01 | 54.10445 | -58.63265 | 35285 ft | 468 kts | 224° |
| 2026-05-05 11:01 | 54.05831 | -58.71096 | 35288 ft | 468 kts | 224° |
| 2026-05-05 11:02 | 54.01221 | -58.78897 | 35287 ft | 466 kts | 224° |
| 2026-05-05 11:02 | 53.96626 | -58.86645 | 35285 ft | 465 kts | 224° |
| 2026-05-05 11:03 | 53.92028 | -58.94375 | 35292 ft | 465 kts | 224° |
| 2026-05-05 11:03 | 53.87429 | -59.02079 | 35296 ft | 465 kts | 224° |
| 2026-05-05 11:04 | 53.82818 | -59.09779 | 35297 ft | 465 kts | 224° |
| 2026-05-05 11:04 | 53.78226 | -59.17420 | 35299 ft | 463 kts | 224° |
| 2026-05-05 11:05 | 53.73628 | -59.25049 | 35311 ft | 463 kts | 224° |
| 2026-05-05 11:05 | 53.69023 | -59.32663 | 35310 ft | 463 kts | 224° |
| 2026-05-05 11:06 | 53.64421 | -59.40249 | 35299 ft | 463 kts | 224° |
| 2026-05-05 11:06 | 53.59810 | -59.47825 | 35307 ft | 462 kts | 224° |
| 2026-05-05 11:07 | 53.55212 | -59.55354 | 35312 ft | 462 kts | 224° |
| 2026-05-05 11:07 | 53.50602 | -59.62881 | 35324 ft | 462 kts | 224° |
| 2026-05-05 11:08 | 53.46015 | -59.70346 | 35320 ft | 462 kts | 224° |
| 2026-05-05 11:08 | 53.41404 | -59.77826 | 35326 ft | 460 kts | 225° |
| 2026-05-05 11:09 | 53.36801 | -59.85269 | 35349 ft | 460 kts | 224° |
| 2026-05-05 11:09 | 53.32190 | -59.92698 | 35328 ft | 461 kts | 224° |
| 2026-05-05 11:10 | 53.27562 | -60.00136 | 35339 ft | 462 kts | 224° |
| 2026-05-05 11:10 | 53.22930 | -60.07555 | 35330 ft | 461 kts | 225° |
| 2026-05-05 11:11 | 53.18304 | -60.14940 | 35331 ft | 460 kts | 225° |
| 2026-05-05 11:11 | 53.13676 | -60.22308 | 35334 ft | 460 kts | 224° |
| 2026-05-05 11:12 | 53.09039 | -60.29665 | 35361 ft | 460 kts | 224° |
| 2026-05-05 11:12 | 53.04401 | -60.37002 | 35362 ft | 459 kts | 225° |
| 2026-05-05 11:13 | 52.99773 | -60.44298 | 35343 ft | 458 kts | 225° |
| 2026-05-05 11:13 | 52.95142 | -60.51576 | 35355 ft | 459 kts | 225° |
| 2026-05-05 11:14 | 52.90507 | -60.58840 | 35374 ft | 459 kts | 225° |
| 2026-05-05 11:14 | 52.85871 | -60.66083 | 35370 ft | 459 kts | 225° |
| 2026-05-05 11:15 | 52.81221 | -60.73324 | 35385 ft | 459 kts | 225° |
| 2026-05-05 11:15 | 52.76574 | -60.80540 | 35386 ft | 459 kts | 225° |
| 2026-05-05 11:16 | 52.71917 | -60.87747 | 35399 ft | 459 kts | 225° |
| 2026-05-05 11:16 | 52.67290 | -60.94886 | 35398 ft | 459 kts | 225° |
| 2026-05-05 11:17 | 52.62625 | -61.02062 | 35404 ft | 459 kts | 225° |
| 2026-05-05 11:17 | 52.57957 | -61.09222 | 35406 ft | 459 kts | 225° |
| 2026-05-05 11:18 | 52.53287 | -61.16363 | 35402 ft | 459 kts | 225° |
| 2026-05-05 11:18 | 52.48612 | -61.23489 | 35412 ft | 459 kts | 225° |
| 2026-05-05 11:19 | 52.43934 | -61.30598 | 35413 ft | 459 kts | 225° |
| 2026-05-05 11:19 | 52.39249 | -61.37696 | 35421 ft | 459 kts | 224° |
| 2026-05-05 11:20 | 52.34564 | -61.44772 | 35430 ft | 459 kts | 225° |
| 2026-05-05 11:20 | 52.29869 | -61.51844 | 35432 ft | 459 kts | 224° |
| 2026-05-05 11:21 | 52.25172 | -61.58897 | 35437 ft | 458 kts | 225° |
| 2026-05-05 11:21 | 52.20480 | -61.65919 | 35441 ft | 458 kts | 225° |
| 2026-05-05 11:22 | 52.15788 | -61.72922 | 35450 ft | 458 kts | 225° |
| 2026-05-05 11:22 | 52.11086 | -61.79918 | 35462 ft | 458 kts | 224° |
| 2026-05-05 11:23 | 52.06385 | -61.86892 | 35452 ft | 457 kts | 225° |
| 2026-05-05 11:23 | 52.01680 | -61.93851 | 35469 ft | 457 kts | 224° |
| 2026-05-05 11:24 | 51.97003 | -62.00749 | 35472 ft | 457 kts | 224° |
| 2026-05-05 11:24 | 51.92259 | -62.07725 | 35472 ft | 457 kts | 224° |
| 2026-05-05 11:25 | 51.87580 | -62.14585 | 35466 ft | 457 kts | 225° |
| 2026-05-05 11:25 | 51.82837 | -62.21518 | 35479 ft | 456 kts | 225° |
| 2026-05-05 11:26 | 51.78158 | -62.28335 | 35492 ft | 456 kts | 225° |
| 2026-05-05 11:26 | 51.73417 | -62.35225 | 35499 ft | 456 kts | 224° |
| 2026-05-05 11:27 | 51.68732 | -62.42014 | 35479 ft | 456 kts | 225° |
| 2026-05-05 11:27 | 51.64017 | -62.48825 | 35508 ft | 455 kts | 225° |
| 2026-05-05 11:28 | 51.59297 | -62.55624 | 35509 ft | 455 kts | 225° |
| 2026-05-05 11:28 | 51.54575 | -62.62406 | 35521 ft | 455 kts | 224° |
| 2026-05-05 11:29 | 51.49845 | -62.69181 | 35503 ft | 455 kts | 225° |
| 2026-05-05 11:29 | 51.45129 | -62.75916 | 35527 ft | 453 kts | 225° |
| 2026-05-05 11:30 | 51.40424 | -62.82615 | 35533 ft | 453 kts | 225° |
| 2026-05-05 11:30 | 51.35713 | -62.89303 | 35538 ft | 453 kts | 225° |
| 2026-05-05 11:31 | 51.31001 | -62.95974 | 35552 ft | 453 kts | 225° |
| 2026-05-05 11:31 | 51.26287 | -63.02628 | 35544 ft | 451 kts | 225° |
| 2026-05-05 11:32 | 51.21582 | -63.09253 | 35553 ft | 451 kts | 225° |
| 2026-05-05 11:32 | 51.16873 | -63.15862 | 35566 ft | 451 kts | 225° |
| 2026-05-05 11:33 | 51.12160 | -63.22459 | 35563 ft | 451 kts | 225° |
| 2026-05-05 11:33 | 51.07448 | -63.29036 | 35567 ft | 450 kts | 225° |
| 2026-05-05 11:34 | 51.02740 | -63.35588 | 35578 ft | 450 kts | 225° |
| 2026-05-05 11:34 | 50.98034 | -63.42120 | 35577 ft | 450 kts | 225° |
| 2026-05-05 11:35 | 50.93349 | -63.48605 | 35585 ft | 450 kts | 224° |
| 2026-05-05 11:35 | 50.88642 | -63.55102 | 35586 ft | 447 kts | 225° |
| 2026-05-05 11:36 | 50.83931 | -63.61587 | 35588 ft | 446 kts | 225° |
| 2026-05-05 11:36 | 50.79282 | -63.67968 | 35605 ft | 446 kts | 225° |
| 2026-05-05 11:37 | 50.74594 | -63.74384 | 35601 ft | 446 kts | 225° |
| 2026-05-05 11:37 | 50.69909 | -63.80780 | 35605 ft | 444 kts | 225° |
| 2026-05-05 11:38 | 50.65240 | -63.87136 | 35610 ft | 443 kts | 225° |
| 2026-05-05 11:38 | 50.60567 | -63.93481 | 35612 ft | 443 kts | 225° |
| 2026-05-05 11:39 | 50.55890 | -63.99813 | 35622 ft | 443 kts | 225° |
| 2026-05-05 11:39 | 50.51212 | -64.06130 | 35619 ft | 443 kts | 225° |
| 2026-05-05 11:40 | 50.46531 | -64.12433 | 35622 ft | 443 kts | 225° |
| 2026-05-05 11:40 | 50.41842 | -64.18731 | 35626 ft | 443 kts | 225° |
| 2026-05-05 11:41 | 50.37192 | -64.24959 | 35631 ft | 442 kts | 225° |
| 2026-05-05 11:41 | 50.32489 | -64.31241 | 35635 ft | 441 kts | 225° |
| 2026-05-05 11:42 | 50.27857 | -64.37412 | 35640 ft | 440 kts | 225° |
| 2026-05-05 11:42 | 50.23195 | -64.43605 | 35654 ft | 440 kts | 225° |
| 2026-05-05 11:43 | 50.18526 | -64.49793 | 35661 ft | 440 kts | 225° |
| 2026-05-05 11:43 | 50.13860 | -64.55961 | 35650 ft | 439 kts | 225° |
| 2026-05-05 11:44 | 50.09998 | -64.61052 | 35668 ft | 437 kts | 225° |
| 2026-05-05 11:44 | 50.05356 | -64.67157 | 35670 ft | 437 kts | 225° |
| 2026-05-05 11:45 | 50.00710 | -64.73251 | 35687 ft | 437 kts | 225° |
| 2026-05-05 11:45 | 49.96061 | -64.79334 | 35658 ft | 437 kts | 225° |
| 2026-05-05 11:46 | 49.91430 | -64.85378 | 35684 ft | 434 kts | 225° |
| 2026-05-05 11:46 | 49.86803 | -64.91400 | 35691 ft | 434 kts | 225° |
| 2026-05-05 11:47 | 49.82177 | -64.97405 | 35690 ft | 434 kts | 225° |
| 2026-05-05 11:47 | 49.77552 | -65.03395 | 35666 ft | 434 kts | 225° |
| 2026-05-05 11:48 | 49.70620 | -65.12342 | 35691 ft | 432 kts | 225° |
| 2026-05-05 11:48 | 49.66007 | -65.18277 | 35690 ft | 432 kts | 225° |
| 2026-05-05 11:49 | 49.61392 | -65.24199 | 35688 ft | 432 kts | 225° |
| 2026-05-05 11:49 | 49.56772 | -65.30113 | 35668 ft | 431 kts | 225° |
| 2026-05-05 11:50 | 49.52153 | -65.36010 | 35690 ft | 431 kts | 225° |
| 2026-05-05 11:50 | 49.47532 | -65.41895 | 35692 ft | 431 kts | 225° |
| 2026-05-05 11:51 | 49.42912 | -65.47764 | 35693 ft | 431 kts | 225° |
| 2026-05-05 11:51 | 49.38284 | -65.53629 | 35676 ft | 431 kts | 225° |
| 2026-05-05 11:52 | 49.33664 | -65.59468 | 35692 ft | 430 kts | 225° |
| 2026-05-05 11:52 | 49.29040 | -65.65297 | 35697 ft | 430 kts | 225° |
| 2026-05-05 11:53 | 49.24411 | -65.71120 | 35690 ft | 430 kts | 225° |
| 2026-05-05 11:53 | 49.19784 | -65.76924 | 35678 ft | 430 kts | 225° |
| 2026-05-05 11:54 | 49.15158 | -65.82713 | 35706 ft | 430 kts | 225° |
| 2026-05-05 11:54 | 49.10528 | -65.88493 | 35707 ft | 430 kts | 225° |
| 2026-05-05 11:55 | 49.05895 | -65.94261 | 35718 ft | 430 kts | 225° |
| 2026-05-05 11:55 | 49.01295 | -65.99975 | 35697 ft | 429 kts | 225° |
| 2026-05-05 11:56 | 48.96668 | -66.05707 | 35733 ft | 428 kts | 225° |
| 2026-05-05 11:56 | 48.92053 | -66.11411 | 35732 ft | 427 kts | 225° |
| 2026-05-05 11:57 | 48.87434 | -66.17105 | 35738 ft | 427 kts | 225° |
| 2026-05-05 11:57 | 48.82815 | -66.22786 | 35721 ft | 427 kts | 225° |
| 2026-05-05 11:58 | 48.78204 | -66.28443 | 35743 ft | 425 kts | 225° |
| 2026-05-05 11:58 | 48.73599 | -66.34079 | 35741 ft | 425 kts | 225° |
| 2026-05-05 11:59 | 48.68997 | -66.39697 | 35739 ft | 425 kts | 225° |
| 2026-05-05 11:59 | 48.64388 | -66.45311 | 35749 ft | 425 kts | 225° |
| 2026-05-05 12:00 | 48.59782 | -66.50909 | 35762 ft | 425 kts | 225° |
| 2026-05-05 12:00 | 48.55162 | -66.56508 | 35762 ft | 425 kts | 225° |
| 2026-05-05 12:01 | 48.50542 | -66.62094 | 35753 ft | 425 kts | 225° |
| 2026-05-05 12:01 | 48.45925 | -66.67664 | 35736 ft | 425 kts | 225° |
| 2026-05-05 12:02 | 48.41306 | -66.73222 | 35759 ft | 425 kts | 225° |
| 2026-05-05 12:02 | 48.36689 | -66.78764 | 35763 ft | 425 kts | 225° |
| 2026-05-05 12:03 | 48.32063 | -66.84305 | 35763 ft | 425 kts | 225° |
| 2026-05-05 12:03 | 48.27441 | -66.89830 | 35750 ft | 425 kts | 225° |
| 2026-05-05 12:04 | 48.22824 | -66.95337 | 35766 ft | 424 kts | 225° |
| 2026-05-05 12:04 | 48.18204 | -67.00834 | 35770 ft | 424 kts | 225° |
| 2026-05-05 12:05 | 48.13576 | -67.06329 | 35754 ft | 424 kts | 225° |
| 2026-05-05 12:05 | 48.08958 | -67.11798 | 35724 ft | 423 kts | 225° |
| 2026-05-05 12:06 | 48.04361 | -67.17230 | 35763 ft | 424 kts | 225° |
| 2026-05-05 12:06 | 47.99731 | -67.22689 | 35752 ft | 424 kts | 225° |
| 2026-05-05 12:07 | 47.95098 | -67.28139 | 35758 ft | 424 kts | 225° |
| 2026-05-05 12:07 | 47.90463 | -67.33577 | 35732 ft | 424 kts | 225° |
| 2026-05-05 12:08 | 47.85818 | -67.39016 | 35757 ft | 425 kts | 225° |
| 2026-05-05 12:08 | 47.81162 | -67.44454 | 35764 ft | 425 kts | 225° |
| 2026-05-05 12:09 | 47.76506 | -67.49880 | 35760 ft | 425 kts | 225° |
| 2026-05-05 12:09 | 47.71845 | -67.55301 | 35752 ft | 425 kts | 224° |
| 2026-05-05 12:10 | 47.67182 | -67.60710 | 35768 ft | 426 kts | 224° |
| 2026-05-05 12:10 | 47.62520 | -67.66105 | 35763 ft | 425 kts | 224° |
| 2026-05-05 12:11 | 47.57850 | -67.71497 | 35767 ft | 424 kts | 224° |
| 2026-05-05 12:11 | 47.53252 | -67.76896 | 35751 ft | 418 kts | 230° |
| 2026-05-05 12:12 | 47.49132 | -67.82858 | 35761 ft | 417 kts | 230° |
| 2026-05-05 12:12 | 47.44950 | -67.88800 | 35762 ft | 417 kts | 230° |
| 2026-05-05 12:13 | 47.40762 | -67.94720 | 35754 ft | 417 kts | 230° |
| 2026-05-05 12:13 | 47.36593 | -68.00599 | 35729 ft | 417 kts | 230° |
| 2026-05-05 12:14 | 47.32406 | -68.06489 | 35734 ft | 416 kts | 230° |
| 2026-05-05 12:14 | 47.28223 | -68.12359 | 35734 ft | 416 kts | 230° |
| 2026-05-05 12:15 | 47.24028 | -68.18234 | 35733 ft | 416 kts | 230° |
| 2026-05-05 12:15 | 47.19828 | -68.24101 | 35716 ft | 416 kts | 230° |
| 2026-05-05 12:16 | 47.15635 | -68.29946 | 35731 ft | 415 kts | 230° |
| 2026-05-05 12:16 | 47.11443 | -68.35776 | 35729 ft | 415 kts | 230° |
| 2026-05-05 12:17 | 47.07246 | -68.41599 | 35724 ft | 415 kts | 230° |
| 2026-05-05 12:17 | 47.03040 | -68.47421 | 35722 ft | 415 kts | 230° |
| 2026-05-05 12:18 | 46.98839 | -68.53224 | 35720 ft | 415 kts | 230° |
| 2026-05-05 12:18 | 46.94633 | -68.59020 | 35714 ft | 415 kts | 230° |
| 2026-05-05 12:19 | 46.90422 | -68.64811 | 35712 ft | 415 kts | 230° |
| 2026-05-05 12:19 | 46.86212 | -68.70586 | 35711 ft | 415 kts | 230° |
| 2026-05-05 12:20 | 46.81997 | -68.76355 | 35721 ft | 415 kts | 230° |
| 2026-05-05 12:20 | 46.77784 | -68.82109 | 35720 ft | 415 kts | 229° |
| 2026-05-05 12:21 | 46.73565 | -68.87857 | 35718 ft | 415 kts | 229° |
| 2026-05-05 12:21 | 46.69366 | -68.93565 | 35719 ft | 415 kts | 229° |
| 2026-05-05 12:22 | 46.65144 | -68.99294 | 35707 ft | 416 kts | 229° |
| 2026-05-05 12:22 | 46.60905 | -69.05031 | 35726 ft | 416 kts | 229° |
| 2026-05-05 12:23 | 46.56667 | -69.10753 | 35729 ft | 416 kts | 229° |
| 2026-05-05 12:23 | 46.52430 | -69.16463 | 35729 ft | 416 kts | 229° |
| 2026-05-05 12:24 | 46.48187 | -69.22168 | 35719 ft | 416 kts | 229° |
| 2026-05-05 12:24 | 46.43933 | -69.27874 | 35730 ft | 416 kts | 229° |
| 2026-05-05 12:25 | 46.39683 | -69.33562 | 35732 ft | 416 kts | 229° |
| 2026-05-05 12:25 | 46.35429 | -69.39243 | 35731 ft | 416 kts | 229° |
| 2026-05-05 12:26 | 46.31176 | -69.44911 | 35731 ft | 416 kts | 229° |
| 2026-05-05 12:26 | 46.26908 | -69.50585 | 35735 ft | 416 kts | 229° |
| 2026-05-05 12:27 | 46.22641 | -69.56245 | 35732 ft | 416 kts | 229° |
| 2026-05-05 12:27 | 46.18373 | -69.61895 | 35737 ft | 416 kts | 229° |
| 2026-05-05 12:28 | 46.14103 | -69.67535 | 35729 ft | 417 kts | 229° |
| 2026-05-05 12:28 | 46.09823 | -69.73176 | 35745 ft | 416 kts | 229° |
| 2026-05-05 12:29 | 46.05569 | -69.78769 | 35741 ft | 413 kts | 229° |
| 2026-05-05 12:29 | 46.01331 | -69.84332 | 35737 ft | 412 kts | 229° |
| 2026-05-05 12:30 | 45.97086 | -69.89889 | 35739 ft | 413 kts | 228° |
| 2026-05-05 12:30 | 45.92858 | -69.95413 | 35748 ft | 413 kts | 228° |
| 2026-05-05 12:31 | 45.88603 | -70.00960 | 35744 ft | 413 kts | 228° |
| 2026-05-05 12:31 | 45.84343 | -70.06502 | 35754 ft | 413 kts | 228° |
| 2026-05-05 12:32 | 45.80076 | -70.12040 | 35753 ft | 413 kts | 228° |
| 2026-05-05 12:32 | 45.75812 | -70.17562 | 35745 ft | 413 kts | 228° |
| 2026-05-05 12:33 | 45.72264 | -70.22150 | 35755 ft | 413 kts | 228° |
| 2026-05-05 12:33 | 45.67967 | -70.27694 | 35748 ft | 413 kts | 228° |
| 2026-05-05 12:34 | 45.63721 | -70.33160 | 35750 ft | 414 kts | 228° |
| 2026-05-05 12:34 | 45.59411 | -70.38697 | 35758 ft | 414 kts | 228° |
| 2026-05-05 12:35 | 45.55119 | -70.44198 | 35761 ft | 414 kts | 227° |
| 2026-05-05 12:35 | 45.50830 | -70.49684 | 35763 ft | 414 kts | 227° |
| 2026-05-05 12:36 | 45.46566 | -70.55126 | 35766 ft | 414 kts | 227° |
| 2026-05-05 12:36 | 45.42268 | -70.60601 | 35763 ft | 415 kts | 227° |
| 2026-05-05 12:37 | 45.37966 | -70.66069 | 35766 ft | 415 kts | 227° |
| 2026-05-05 12:37 | 45.33660 | -70.71530 | 35763 ft | 414 kts | 227° |
| 2026-05-05 12:38 | 45.29363 | -70.76967 | 35762 ft | 414 kts | 227° |
| 2026-05-05 12:38 | 45.25059 | -70.82404 | 35765 ft | 414 kts | 227° |
| 2026-05-05 12:39 | 45.20748 | -70.87837 | 35764 ft | 414 kts | 227° |
| 2026-05-05 12:39 | 45.16448 | -70.93245 | 35768 ft | 414 kts | 227° |
| 2026-05-05 12:40 | 45.12134 | -70.98658 | 35772 ft | 414 kts | 226° |
| 2026-05-05 12:40 | 45.07826 | -71.04052 | 35779 ft | 414 kts | 226° |
| 2026-05-05 12:41 | 45.03515 | -71.09441 | 35783 ft | 414 kts | 226° |
| 2026-05-05 12:41 | 44.99199 | -71.14823 | 35782 ft | 414 kts | 226° |
| 2026-05-05 12:42 | 44.94874 | -71.20204 | 35782 ft | 415 kts | 226° |
| 2026-05-05 12:42 | 44.90542 | -71.25584 | 35776 ft | 415 kts | 226° |
| 2026-05-05 12:43 | 44.86216 | -71.30946 | 35791 ft | 415 kts | 226° |
| 2026-05-05 12:43 | 44.81908 | -71.36273 | 35769 ft | 414 kts | 226° |
| 2026-05-05 12:44 | 44.77567 | -71.41630 | 35791 ft | 416 kts | 226° |
| 2026-05-05 12:44 | 44.73222 | -71.46981 | 35779 ft | 415 kts | 226° |
| 2026-05-05 12:45 | 44.68871 | -71.52330 | 35794 ft | 416 kts | 226° |
| 2026-05-05 12:45 | 44.64516 | -71.57670 | 35792 ft | 416 kts | 226° |
| 2026-05-05 12:46 | 44.60160 | -71.63002 | 35797 ft | 415 kts | 226° |
| 2026-05-05 12:46 | 44.55815 | -71.68309 | 35800 ft | 414 kts | 226° |
| 2026-05-05 12:47 | 44.51465 | -71.73611 | 35799 ft | 414 kts | 226° |
| 2026-05-05 12:47 | 44.47111 | -71.78907 | 35785 ft | 415 kts | 225° |
| 2026-05-05 12:48 | 44.42749 | -71.84202 | 35798 ft | 415 kts | 225° |
| 2026-05-05 12:48 | 44.38392 | -71.89480 | 35784 ft | 415 kts | 225° |
| 2026-05-05 12:49 | 44.34025 | -71.94759 | 35785 ft | 415 kts | 225° |
| 2026-05-05 12:49 | 44.29661 | -72.00025 | 35775 ft | 414 kts | 225° |
| 2026-05-05 12:50 | 44.25299 | -72.05277 | 35763 ft | 414 kts | 225° |
| 2026-05-05 12:50 | 44.20938 | -72.10517 | 35766 ft | 414 kts | 225° |
| 2026-05-05 12:51 | 44.16575 | -72.15749 | 35760 ft | 414 kts | 225° |
| 2026-05-05 12:51 | 44.12205 | -72.20978 | 35796 ft | 413 kts | 225° |
| 2026-05-05 12:52 | 44.07840 | -72.26190 | 35807 ft | 414 kts | 225° |
| 2026-05-05 12:52 | 44.03472 | -72.31397 | 35811 ft | 414 kts | 225° |
| 2026-05-05 12:53 | 43.99105 | -72.36591 | 35798 ft | 413 kts | 225° |
| 2026-05-05 12:53 | 43.94721 | -72.41795 | 35813 ft | 415 kts | 225° |
| 2026-05-05 12:54 | 43.88191 | -72.49528 | 35810 ft | 413 kts | 224° |
| 2026-05-05 12:55 | 43.83823 | -72.54687 | 35793 ft | 413 kts | 224° |
| 2026-05-05 12:55 | 43.79431 | -72.59864 | 35810 ft | 416 kts | 224° |
| 2026-05-05 12:56 | 43.75023 | -72.65050 | 35808 ft | 416 kts | 224° |
| 2026-05-05 12:56 | 43.70613 | -72.70227 | 35813 ft | 416 kts | 224° |
| 2026-05-05 12:57 | 43.66207 | -72.75390 | 35786 ft | 416 kts | 224° |
| 2026-05-05 12:57 | 43.61774 | -72.80574 | 35798 ft | 418 kts | 224° |
| 2026-05-05 12:58 | 43.57342 | -72.85747 | 35824 ft | 418 kts | 224° |
| 2026-05-05 12:58 | 43.52909 | -72.90910 | 35820 ft | 417 kts | 224° |
| 2026-05-05 12:59 | 43.48463 | -72.96077 | 35835 ft | 417 kts | 223° |
| 2026-05-05 12:59 | 43.44037 | -73.01213 | 35814 ft | 416 kts | 223° |
| 2026-05-05 13:00 | 43.37394 | -73.08899 | 35822 ft | 416 kts | 223° |
| 2026-05-05 13:01 | 43.28505 | -73.19150 | 35811 ft | 418 kts | 223° |
| 2026-05-05 13:01 | 43.24043 | -73.24281 | 35813 ft | 419 kts | 223° |
| 2026-05-05 13:02 | 43.19578 | -73.29407 | 35814 ft | 418 kts | 223° |
| 2026-05-05 13:02 | 43.15121 | -73.34514 | 35825 ft | 416 kts | 223° |
| 2026-05-05 13:03 | 43.10719 | -73.39548 | 35830 ft | 416 kts | 223° |
| 2026-05-05 13:03 | 43.06260 | -73.44638 | 35834 ft | 416 kts | 223° |
| 2026-05-05 13:04 | 43.01810 | -73.49708 | 35805 ft | 416 kts | 223° |
| 2026-05-05 13:04 | 42.97345 | -73.54785 | 35834 ft | 419 kts | 223° |
| 2026-05-05 13:05 | 42.92867 | -73.59867 | 35832 ft | 419 kts | 223° |
| 2026-05-05 13:05 | 42.88377 | -73.64953 | 35836 ft | 419 kts | 222° |
| 2026-05-05 13:06 | 42.83899 | -73.70015 | 35811 ft | 418 kts | 222° |
| 2026-05-05 13:06 | 42.79391 | -73.75102 | 35836 ft | 423 kts | 222° |
| 2026-05-05 13:07 | 42.74952 | -73.80315 | 35827 ft | 419 kts | 231° |
| 2026-05-05 13:07 | 42.71673 | -73.86818 | 35821 ft | 418 kts | 238° |
| 2026-05-05 13:08 | 42.68460 | -73.93389 | 35827 ft | 418 kts | 238° |
| 2026-05-05 13:08 | 42.65248 | -73.99981 | 35831 ft | 419 kts | 238° |
| 2026-05-05 13:09 | 42.62044 | -74.06544 | 35835 ft | 414 kts | 238° |
| 2026-05-05 13:09 | 42.58860 | -74.13053 | 35820 ft | 414 kts | 238° |
| 2026-05-05 13:10 | 42.55678 | -74.19544 | 35827 ft | 414 kts | 238° |
| 2026-05-05 13:10 | 42.52486 | -74.26039 | 35805 ft | 414 kts | 238° |
| 2026-05-05 13:11 | 42.49272 | -74.32568 | 35833 ft | 417 kts | 238° |
| 2026-05-05 13:11 | 42.46069 | -74.39059 | 35837 ft | 416 kts | 238° |
| 2026-05-05 13:12 | 42.42854 | -74.45560 | 35842 ft | 415 kts | 238° |
| 2026-05-05 13:12 | 42.39639 | -74.52048 | 35842 ft | 415 kts | 238° |
| 2026-05-05 13:13 | 42.36417 | -74.58535 | 35831 ft | 416 kts | 237° |
| 2026-05-05 13:13 | 42.33169 | -74.65059 | 35847 ft | 419 kts | 237° |
| 2026-05-05 13:14 | 42.29908 | -74.71596 | 35843 ft | 419 kts | 237° |
| 2026-05-05 13:14 | 42.26649 | -74.78115 | 35851 ft | 419 kts | 237° |
| 2026-05-05 13:15 | 42.23385 | -74.84633 | 35856 ft | 419 kts | 237° |
| 2026-05-05 13:15 | 42.20117 | -74.91143 | 35852 ft | 420 kts | 237° |
| 2026-05-05 13:16 | 42.16149 | -74.96886 | 35864 ft | 425 kts | 215° |
| 2026-05-05 13:16 | 42.11126 | -75.01147 | 35867 ft | 427 kts | 214° |
| 2026-05-05 13:17 | 42.06065 | -75.05344 | 35872 ft | 428 kts | 214° |
| 2026-05-05 13:17 | 42.00976 | -75.09513 | 35868 ft | 430 kts | 214° |
| 2026-05-05 13:18 | 41.95860 | -75.13692 | 35871 ft | 431 kts | 214° |
| 2026-05-05 13:18 | 41.90734 | -75.17870 | 35874 ft | 431 kts | 214° |
| 2026-05-05 13:19 | 41.85614 | -75.22035 | 35868 ft | 430 kts | 214° |
| 2026-05-05 13:19 | 41.80493 | -75.26194 | 35874 ft | 430 kts | 214° |
| 2026-05-05 13:20 | 41.76231 | -75.29649 | 35867 ft | 430 kts | 214° |
| 2026-05-05 13:20 | 41.71701 | -75.34701 | 35868 ft | 423 kts | 234° |
| 2026-05-05 13:21 | 41.68108 | -75.40940 | 35875 ft | 425 kts | 233° |
| 2026-05-05 13:21 | 41.64438 | -75.47147 | 35874 ft | 424 kts | 233° |
| 2026-05-05 13:22 | 41.60789 | -75.53320 | 35870 ft | 423 kts | 233° |
| 2026-05-05 13:22 | 41.57176 | -75.59423 | 35870 ft | 423 kts | 233° |
| 2026-05-05 13:23 | 41.53482 | -75.65648 | 35866 ft | 423 kts | 233° |
| 2026-05-05 13:23 | 41.49826 | -75.71799 | 35849 ft | 424 kts | 233° |
| 2026-05-05 13:24 | 41.46143 | -75.77981 | 35893 ft | 427 kts | 233° |
| 2026-05-05 13:24 | 41.42448 | -75.84170 | 35894 ft | 426 kts | 233° |
| 2026-05-05 13:25 | 41.38758 | -75.90339 | 35891 ft | 426 kts | 233° |
| 2026-05-05 13:25 | 41.35061 | -75.96507 | 35863 ft | 426 kts | 233° |
| 2026-05-05 13:26 | 41.31359 | -76.02671 | 35873 ft | 427 kts | 233° |
| 2026-05-05 13:26 | 41.27641 | -76.08849 | 35883 ft | 428 kts | 233° |
| 2026-05-05 13:27 | 41.23944 | -76.14981 | 35904 ft | 428 kts | 233° |
| 2026-05-05 13:27 | 41.20207 | -76.21165 | 35899 ft | 426 kts | 233° |
| 2026-05-05 13:28 | 41.16500 | -76.27287 | 35901 ft | 426 kts | 233° |
| 2026-05-05 13:28 | 41.12775 | -76.33427 | 35898 ft | 427 kts | 233° |
| 2026-05-05 13:29 | 41.09070 | -76.39522 | 35888 ft | 427 kts | 233° |
| 2026-05-05 13:29 | 41.05335 | -76.45654 | 35885 ft | 428 kts | 233° |
| 2026-05-05 13:30 | 41.01602 | -76.51770 | 35887 ft | 427 kts | 234° |
| 2026-05-05 13:30 | 40.97870 | -76.57872 | 35863 ft | 425 kts | 233° |
| 2026-05-05 13:31 | 40.94127 | -76.63981 | 35892 ft | 429 kts | 233° |
| 2026-05-05 13:31 | 40.90391 | -76.70065 | 35454 ft | 422 kts | 233° |
| 2026-05-05 13:32 | 40.88539 | -76.73079 | 34815 ft | 422 kts | 233° |
| 2026-05-05 13:32 | 40.86689 | -76.76083 | 34224 ft | 421 kts | 234° |
| 2026-05-05 13:32 | 40.84852 | -76.79066 | 33678 ft | 418 kts | 234° |
| 2026-05-05 13:32 | 40.83019 | -76.82037 | 33111 ft | 415 kts | 234° |
| 2026-05-05 13:33 | 40.81195 | -76.84977 | 32561 ft | 412 kts | 232° |
| 2026-05-05 13:33 | 40.79047 | -76.87495 | 31964 ft | 417 kts | 215° |
| 2026-05-05 13:33 | 40.76389 | -76.89063 | 31448 ft | 422 kts | 200° |
| 2026-05-05 13:33 | 40.73561 | -76.90018 | 31039 ft | 418 kts | 199° |
| 2026-05-05 13:34 | 40.70752 | -76.90957 | 30580 ft | 415 kts | 198° |
| 2026-05-05 13:34 | 40.67951 | -76.91865 | 30075 ft | 414 kts | 198° |
| 2026-05-05 13:34 | 40.65156 | -76.92752 | 29482 ft | 413 kts | 198° |
| 2026-05-05 13:34 | 40.62372 | -76.93625 | 28952 ft | 410 kts | 198° |
| 2026-05-05 13:35 | 40.59609 | -76.94488 | 28446 ft | 407 kts | 198° |
| 2026-05-05 13:35 | 40.56863 | -76.95344 | 27976 ft | 403 kts | 198° |
| 2026-05-05 13:35 | 40.54142 | -76.96190 | 27500 ft | 401 kts | 198° |
| 2026-05-05 13:35 | 40.51443 | -76.97029 | 27038 ft | 398 kts | 198° |
| 2026-05-05 13:36 | 40.48753 | -76.97864 | 26563 ft | 395 kts | 198° |
| 2026-05-05 13:36 | 40.46086 | -76.98692 | 26109 ft | 393 kts | 198° |
| 2026-05-05 13:36 | 40.43435 | -76.99513 | 25657 ft | 390 kts | 198° |
| 2026-05-05 13:36 | 40.40799 | -77.00330 | 25215 ft | 388 kts | 198° |
| 2026-05-05 13:37 | 40.38181 | -77.01140 | 24761 ft | 386 kts | 198° |
| 2026-05-05 13:37 | 40.35581 | -77.01945 | 24326 ft | 383 kts | 198° |
| 2026-05-05 13:37 | 40.32997 | -77.02743 | 23909 ft | 381 kts | 198° |
| 2026-05-05 13:37 | 40.30427 | -77.03537 | 23481 ft | 378 kts | 198° |
| 2026-05-05 13:38 | 40.27905 | -77.04315 | 22950 ft | 377 kts | 198° |
| 2026-05-05 13:38 | 40.25361 | -77.05099 | 22489 ft | 373 kts | 198° |
| 2026-05-05 13:38 | 40.22853 | -77.05871 | 22129 ft | 368 kts | 198° |
| 2026-05-05 13:38 | 40.20376 | -77.06634 | 21731 ft | 364 kts | 198° |
| 2026-05-05 13:39 | 40.17923 | -77.07388 | 21318 ft | 360 kts | 198° |
| 2026-05-05 13:39 | 40.15494 | -77.08135 | 20932 ft | 357 kts | 198° |
| 2026-05-05 13:39 | 40.13094 | -77.08872 | 20545 ft | 353 kts | 198° |
| 2026-05-05 13:39 | 40.10705 | -77.09604 | 20160 ft | 350 kts | 198° |
| 2026-05-05 13:40 | 40.08342 | -77.10329 | 19769 ft | 347 kts | 198° |
| 2026-05-05 13:40 | 40.05991 | -77.11050 | 19326 ft | 347 kts | 198° |
| 2026-05-05 13:40 | 40.03655 | -77.11766 | 18964 ft | 344 kts | 198° |
| 2026-05-05 13:40 | 40.01341 | -77.12475 | 18602 ft | 341 kts | 199° |
| 2026-05-05 13:41 | 39.99039 | -77.13179 | 18230 ft | 339 kts | 199° |
| 2026-05-05 13:41 | 39.96752 | -77.13878 | 17766 ft | 337 kts | 199° |
| 2026-05-05 13:41 | 39.94469 | -77.14575 | 17342 ft | 335 kts | 199° |
| 2026-05-05 13:41 | 39.92249 | -77.15253 | 17027 ft | 330 kts | 199° |
| 2026-05-05 13:42 | 39.89998 | -77.15940 | 16676 ft | 326 kts | 199° |
| 2026-05-05 13:42 | 39.87811 | -77.16607 | 16319 ft | 322 kts | 198° |
| 2026-05-05 13:42 | 39.85665 | -77.17261 | 15968 ft | 319 kts | 198° |
| 2026-05-05 13:42 | 39.83511 | -77.17917 | 15611 ft | 316 kts | 199° |
| 2026-05-05 13:43 | 39.81379 | -77.18565 | 15261 ft | 314 kts | 198° |
| 2026-05-05 13:43 | 39.79260 | -77.19210 | 14907 ft | 311 kts | 198° |
| 2026-05-05 13:43 | 39.77166 | -77.19847 | 14560 ft | 309 kts | 198° |
| 2026-05-05 13:43 | 39.75086 | -77.20478 | 14200 ft | 306 kts | 198° |
| 2026-05-05 13:44 | 39.73016 | -77.21107 | 13858 ft | 304 kts | 198° |
| 2026-05-05 13:44 | 39.70960 | -77.21731 | 13485 ft | 302 kts | 198° |
| 2026-05-05 13:44 | 39.68923 | -77.22349 | 13111 ft | 299 kts | 198° |
| 2026-05-05 13:44 | 39.67007 | -77.23280 | 12714 ft | 292 kts | 209° |
| 2026-05-05 13:45 | 39.65158 | -77.24371 | 12376 ft | 290 kts | 208° |
| 2026-05-05 13:45 | 39.63320 | -77.25417 | 12045 ft | 287 kts | 207° |
| 2026-05-05 13:45 | 39.61494 | -77.26440 | 11710 ft | 284 kts | 207° |
| 2026-05-05 13:45 | 39.59690 | -77.27439 | 11394 ft | 282 kts | 206° |
| 2026-05-05 13:46 | 39.57889 | -77.28430 | 11074 ft | 279 kts | 206° |
| 2026-05-05 13:46 | 39.56108 | -77.29405 | 10744 ft | 277 kts | 206° |
| 2026-05-05 13:46 | 39.54343 | -77.30369 | 10443 ft | 273 kts | 206° |
| 2026-05-05 13:46 | 39.52614 | -77.31313 | 10303 ft | 265 kts | 206° |
| 2026-05-05 13:47 | 39.50947 | -77.32221 | 10177 ft | 256 kts | 206° |
| 2026-05-05 13:47 | 39.49328 | -77.33104 | 10017 ft | 250 kts | 206° |
| 2026-05-05 13:47 | 39.47733 | -77.33972 | 9707 ft | 248 kts | 206° |
| 2026-05-05 13:47 | 39.46150 | -77.34834 | 9385 ft | 247 kts | 206° |
| 2026-05-05 13:48 | 39.44569 | -77.35694 | 9069 ft | 245 kts | 206° |
| 2026-05-05 13:48 | 39.43003 | -77.36546 | 8788 ft | 242 kts | 206° |
| 2026-05-05 13:48 | 39.41464 | -77.37383 | 8563 ft | 238 kts | 207° |
| 2026-05-05 13:48 | 39.40113 | -77.38527 | 8281 ft | 231 kts | 229° |
| 2026-05-05 13:49 | 39.39202 | -77.40213 | 8003 ft | 228 kts | 238° |
| 2026-05-05 13:49 | 39.38132 | -77.41720 | 7708 ft | 234 kts | 217° |
| 2026-05-05 13:49 | 39.36625 | -77.42593 | 7403 ft | 245 kts | 198° |
| 2026-05-05 13:49 | 39.34903 | -77.42838 | 7137 ft | 253 kts | 188° |
| 2026-05-05 13:50 | 39.33130 | -77.42936 | 6838 ft | 257 kts | 187° |
| 2026-05-05 13:50 | 39.31329 | -77.43004 | 6510 ft | 260 kts | 186° |
| 2026-05-05 13:50 | 39.29519 | -77.43057 | 6160 ft | 261 kts | 186° |
| 2026-05-05 13:50 | 39.27747 | -77.43098 | 5982 ft | 254 kts | 186° |
| 2026-05-05 13:51 | 39.25996 | -77.43132 | 5764 ft | 250 kts | 186° |
| 2026-05-05 13:51 | 39.24266 | -77.43160 | 5494 ft | 248 kts | 186° |
| 2026-05-05 13:51 | 39.22544 | -77.43188 | 5204 ft | 247 kts | 187° |
| 2026-05-05 13:51 | 39.20830 | -77.43214 | 4877 ft | 244 kts | 187° |
| 2026-05-05 13:52 | 39.19156 | -77.43239 | 4549 ft | 237 kts | 187° |
| 2026-05-05 13:52 | 39.17522 | -77.43265 | 4293 ft | 234 kts | 187° |
| 2026-05-05 13:52 | 39.15917 | -77.43288 | 4073 ft | 228 kts | 187° |
| 2026-05-05 13:52 | 39.14345 | -77.43313 | 3775 ft | 222 kts | 188° |
| 2026-05-05 13:53 | 39.12832 | -77.43336 | 3480 ft | 215 kts | 188° |
| 2026-05-05 13:53 | 39.11357 | -77.43359 | 3232 ft | 207 kts | 187° |
| 2026-05-05 13:53 | 39.09951 | -77.43378 | 3008 ft | 198 kts | 187° |
| 2026-05-05 13:53 | 39.08622 | -77.43396 | 2803 ft | 180 kts | 188° |
| 2026-05-05 13:54 | 39.07425 | -77.43413 | 2597 ft | 166 kts | 188° |
| 2026-05-05 13:54 | 39.06304 | -77.43433 | 2379 ft | 154 kts | 188° |
| 2026-05-05 13:54 | 39.05253 | -77.43449 | 2220 ft | 150 kts | 187° |
| 2026-05-05 13:54 | 39.04218 | -77.43471 | 2065 ft | 148 kts | 187° |
| 2026-05-05 13:55 | 39.03190 | -77.43485 | 1805 ft | 147 kts | 187° |
| 2026-05-05 13:55 | 39.02169 | -77.43492 | 1622 ft | 146 kts | 185° |
| 2026-05-05 13:55 | 39.01167 | -77.43485 | 1445 ft | 144 kts | 186° |
| 2026-05-05 13:55 | 39.00162 | -77.43512 | 1254 ft | 144 kts | 187° |
| 2026-05-05 13:56 | 38.99155 | -77.43563 | 1084 ft | 145 kts | 184° |
| 2026-05-05 13:56 | 38.98150 | -77.43554 | 809 ft | 143 kts | 183° |
| 2026-05-05 13:56 | 38.97170 | -77.43574 | 592 ft | 140 kts | 182° |
| 2026-05-05 13:56 | 38.96187 | -77.43588 | 467 ft | 140 kts | 182° |
| 2026-05-05 13:57 | 38.95239 | -77.43601 | 302 ft | 134 kts | 182° |
| 2026-05-05 13:57 | 38.94415 | -77.43614 | 305 ft | 96 kts | 181° |
| 2026-05-05 13:57 | 38.93898 | -77.43622 | 306 ft | 52 kts | 181° |
| 2026-05-05 13:57 | 38.93645 | -77.43626 | 304 ft | 33 kts | 183° |
| 2026-05-05 13:58 | 38.93443 | -77.43703 | 302 ft | 29 kts | 211° |
| 2026-05-05 13:58 | 38.93309 | -77.43836 | 298 ft | 15 kts | 254° |
| 2026-05-05 13:58 | 38.93366 | -77.43886 | 298 ft | 13 kts | 4° |
| 2026-05-05 13:58 | 38.93464 | -77.43880 | 299 ft | 15 kts | 1° |
| 2026-05-05 13:59 | 38.93711 | -77.43877 | 297 ft | 20 kts | 1° |
| 2026-05-05 13:59 | 38.93857 | -77.43876 | 297 ft | 22 kts | 0° |
| 2026-05-05 14:00 | 38.94199 | -77.43870 | 298 ft | 27 kts | 0° |
| 2026-05-05 14:00 | 38.94323 | -77.43870 | 299 ft | 28 kts | 0° |
| 2026-05-05 14:00 | 38.94573 | -77.43865 | 297 ft | 22 kts | 0° |
| 2026-05-05 14:00 | 38.94699 | -77.43869 | 299 ft | 12 kts | 340° |
| 2026-05-05 14:01 | 38.94722 | -77.43975 | 295 ft | 14 kts | 270° |
| 2026-05-05 14:01 | 38.94723 | -77.44115 | 295 ft | 17 kts | 270° |
| 2026-05-05 14:01 | 38.94724 | -77.44277 | 295 ft | 19 kts | 270° |
| 2026-05-05 14:01 | 38.94724 | -77.44432 | 295 ft | 16 kts | 270° |
| 2026-05-05 14:02 | 38.94727 | -77.44584 | 298 ft | 18 kts | 270° |
| 2026-05-05 14:02 | 38.94727 | -77.44645 | 297 ft | 5 kts | 271° |
| 2026-05-05 14:02 | 38.94728 | -77.44678 | 297 ft | 1 kts | 274° |
| 2026-05-05 14:02 | 38.94734 | -77.44690 | 297 ft | 2 kts | 327° |
| 2026-05-05 14:03 | 38.94748 | -77.44689 | 299 ft | 3 kts | 5° |
| 2026-05-05 14:03 | 38.94781 | -77.44680 | 296 ft | 5 kts | 13° |
| 2026-05-05 14:03 | 38.94803 | -77.44673 | 296 ft | 2 kts | 15° |
| 2026-05-05 14:03 | 38.94811 | -77.44670 | 296 ft | 1 kts | 15° |
| 2026-05-05 14:04 | 38.94812 | -77.44669 | 296 ft | 0 kts | 15° |